<?xml version="1.0" encoding="UTF-8" standalone="no" ?>
<gpx xmlns="http://www.topografix.com/GPX/1/1" xmlns:xsi="http://www.w3.org/2001/XMLSchema-instance" xsi:schemaLocation="http://www.topografix.com/GPX/1/1 http://www.topografix.com/GPX/1/1/gpx.xsd" version="1.1" creator="VisuGPX - https://www.visugpx.com">
  <metadata>
    <name>Les Pénitents des Mées</name>
    <desc><![CDATA[Circuit au départ de l'église des Mées, dans le sens anti-horaire.La montée au départ est assez difficile en raison de la hauteur des marches taillées dans la pierre. Le site est majestueux. La descente par un escalier de rondins parait longue.]]></desc>
  </metadata>
  <trk>
    <name><![CDATA[20181030165637-HGXvW]]></name>
    <trkseg>
      <trkpt lat="44.02862" lon="5.97572">
        <ele>429.37</ele>
        <time>2018-10-24T12:18:01Z</time>
      </trkpt>
      <trkpt lat="44.02861" lon="5.97575">
        <ele>430.81</ele>
        <time>2018-10-24T12:18:12Z</time>
      </trkpt>
      <trkpt lat="44.02865" lon="5.97578">
        <ele>430.81</ele>
        <time>2018-10-24T12:19:13Z</time>
      </trkpt>
      <trkpt lat="44.02868" lon="5.97588">
        <ele>430.81</ele>
        <time>2018-10-24T12:19:25Z</time>
      </trkpt>
      <trkpt lat="44.02868" lon="5.97589">
        <ele>430.81</ele>
        <time>2018-10-24T12:19:26Z</time>
      </trkpt>
      <trkpt lat="44.02869" lon="5.97604">
        <ele>431.29</ele>
        <time>2018-10-24T12:19:41Z</time>
      </trkpt>
      <trkpt lat="44.02869" lon="5.97617">
        <ele>430.81</ele>
        <time>2018-10-24T12:19:51Z</time>
      </trkpt>
      <trkpt lat="44.0287" lon="5.97627">
        <ele>433.21</ele>
        <time>2018-10-24T12:20:04Z</time>
      </trkpt>
      <trkpt lat="44.02871" lon="5.97611">
        <ele>431.77</ele>
        <time>2018-10-24T12:20:17Z</time>
      </trkpt>
      <trkpt lat="44.02861" lon="5.97598">
        <ele>430.81</ele>
        <time>2018-10-24T12:20:31Z</time>
      </trkpt>
      <trkpt lat="44.02865" lon="5.9759">
        <ele>430.81</ele>
        <time>2018-10-24T12:20:43Z</time>
      </trkpt>
      <trkpt lat="44.02865" lon="5.9759">
        <ele>430.81</ele>
        <time>2018-10-24T12:20:56Z</time>
      </trkpt>
      <trkpt lat="44.02864" lon="5.97588">
        <ele>430.33</ele>
        <time>2018-10-24T12:21:22Z</time>
      </trkpt>
      <trkpt lat="44.02864" lon="5.97587">
        <ele>429.85</ele>
        <time>2018-10-24T12:21:56Z</time>
      </trkpt>
      <trkpt lat="44.02864" lon="5.97586">
        <ele>429.85</ele>
        <time>2018-10-24T12:22:12Z</time>
      </trkpt>
      <trkpt lat="44.02864" lon="5.97586">
        <ele>429.85</ele>
        <time>2018-10-24T12:22:29Z</time>
      </trkpt>
      <trkpt lat="44.02863" lon="5.97579">
        <ele>430.33</ele>
        <time>2018-10-24T12:22:42Z</time>
      </trkpt>
      <trkpt lat="44.02863" lon="5.97578">
        <ele>429.37</ele>
        <time>2018-10-24T12:23:29Z</time>
      </trkpt>
      <trkpt lat="44.02863" lon="5.97578">
        <ele>429.85</ele>
        <time>2018-10-24T12:23:46Z</time>
      </trkpt>
      <trkpt lat="44.02863" lon="5.97578">
        <ele>429.85</ele>
        <time>2018-10-24T12:23:58Z</time>
      </trkpt>
      <trkpt lat="44.02865" lon="5.97595">
        <ele>430.33</ele>
        <time>2018-10-24T12:24:09Z</time>
      </trkpt>
      <trkpt lat="44.02869" lon="5.9761">
        <ele>430.33</ele>
        <time>2018-10-24T12:24:21Z</time>
      </trkpt>
      <trkpt lat="44.0287" lon="5.97627">
        <ele>431.77</ele>
        <time>2018-10-24T12:24:35Z</time>
      </trkpt>
      <trkpt lat="44.02869" lon="5.9763">
        <ele>431.29</ele>
        <time>2018-10-24T12:24:37Z</time>
      </trkpt>
      <trkpt lat="44.02875" lon="5.97646">
        <ele>432.73</ele>
        <time>2018-10-24T12:24:50Z</time>
      </trkpt>
      <trkpt lat="44.02885" lon="5.97655">
        <ele>433.21</ele>
        <time>2018-10-24T12:25:04Z</time>
      </trkpt>
      <trkpt lat="44.02895" lon="5.97663">
        <ele>436.1</ele>
        <time>2018-10-24T12:25:19Z</time>
      </trkpt>
      <trkpt lat="44.0289" lon="5.9768">
        <ele>436.1</ele>
        <time>2018-10-24T12:25:24Z</time>
      </trkpt>
      <trkpt lat="44.02887" lon="5.97686">
        <ele>437.06</ele>
        <time>2018-10-24T12:25:33Z</time>
      </trkpt>
      <trkpt lat="44.02886" lon="5.97691">
        <ele>437.54</ele>
        <time>2018-10-24T12:25:38Z</time>
      </trkpt>
      <trkpt lat="44.02882" lon="5.97703">
        <ele>438.02</ele>
        <time>2018-10-24T12:25:46Z</time>
      </trkpt>
      <trkpt lat="44.0288" lon="5.9771">
        <ele>438.5</ele>
        <time>2018-10-24T12:25:51Z</time>
      </trkpt>
      <trkpt lat="44.02877" lon="5.97715">
        <ele>438.5</ele>
        <time>2018-10-24T12:26:02Z</time>
      </trkpt>
      <trkpt lat="44.02876" lon="5.97722">
        <ele>439.46</ele>
        <time>2018-10-24T12:26:13Z</time>
      </trkpt>
      <trkpt lat="44.02877" lon="5.97732">
        <ele>438.98</ele>
        <time>2018-10-24T12:26:25Z</time>
      </trkpt>
      <trkpt lat="44.02873" lon="5.97746">
        <ele>439.94</ele>
        <time>2018-10-24T12:26:37Z</time>
      </trkpt>
      <trkpt lat="44.02876" lon="5.97749">
        <ele>440.42</ele>
        <time>2018-10-24T12:26:41Z</time>
      </trkpt>
      <trkpt lat="44.02882" lon="5.97758">
        <ele>439.46</ele>
        <time>2018-10-24T12:26:53Z</time>
      </trkpt>
      <trkpt lat="44.02887" lon="5.97774">
        <ele>438.98</ele>
        <time>2018-10-24T12:27:08Z</time>
      </trkpt>
      <trkpt lat="44.02899" lon="5.97777">
        <ele>438.98</ele>
        <time>2018-10-24T12:27:21Z</time>
      </trkpt>
      <trkpt lat="44.02903" lon="5.97775">
        <ele>438.5</ele>
        <time>2018-10-24T12:27:36Z</time>
      </trkpt>
      <trkpt lat="44.0289" lon="5.97775">
        <ele>438.5</ele>
        <time>2018-10-24T12:27:52Z</time>
      </trkpt>
      <trkpt lat="44.02889" lon="5.97778">
        <ele>438.98</ele>
        <time>2018-10-24T12:27:54Z</time>
      </trkpt>
      <trkpt lat="44.02882" lon="5.97786">
        <ele>439.46</ele>
        <time>2018-10-24T12:28:02Z</time>
      </trkpt>
      <trkpt lat="44.02872" lon="5.97801">
        <ele>440.9</ele>
        <time>2018-10-24T12:28:18Z</time>
      </trkpt>
      <trkpt lat="44.0287" lon="5.97811">
        <ele>441.38</ele>
        <time>2018-10-24T12:28:27Z</time>
      </trkpt>
      <trkpt lat="44.02869" lon="5.97813">
        <ele>441.86</ele>
        <time>2018-10-24T12:28:29Z</time>
      </trkpt>
      <trkpt lat="44.02866" lon="5.97829">
        <ele>443.31</ele>
        <time>2018-10-24T12:28:42Z</time>
      </trkpt>
      <trkpt lat="44.02865" lon="5.97842">
        <ele>444.75</ele>
        <time>2018-10-24T12:28:53Z</time>
      </trkpt>
      <trkpt lat="44.02863" lon="5.97859">
        <ele>445.71</ele>
        <time>2018-10-24T12:29:08Z</time>
      </trkpt>
      <trkpt lat="44.02864" lon="5.97876">
        <ele>447.15</ele>
        <time>2018-10-24T12:29:22Z</time>
      </trkpt>
      <trkpt lat="44.02863" lon="5.97891">
        <ele>447.63</ele>
        <time>2018-10-24T12:29:36Z</time>
      </trkpt>
      <trkpt lat="44.02865" lon="5.97898">
        <ele>448.59</ele>
        <time>2018-10-24T12:29:41Z</time>
      </trkpt>
      <trkpt lat="44.02871" lon="5.97909">
        <ele>449.07</ele>
        <time>2018-10-24T12:29:55Z</time>
      </trkpt>
      <trkpt lat="44.02875" lon="5.97902">
        <ele>452.44</ele>
        <time>2018-10-24T12:30:10Z</time>
      </trkpt>
      <trkpt lat="44.02881" lon="5.97892">
        <ele>454.36</ele>
        <time>2018-10-24T12:30:22Z</time>
      </trkpt>
      <trkpt lat="44.02881" lon="5.9788">
        <ele>455.8</ele>
        <time>2018-10-24T12:30:36Z</time>
      </trkpt>
      <trkpt lat="44.02883" lon="5.97874">
        <ele>457.72</ele>
        <time>2018-10-24T12:30:47Z</time>
      </trkpt>
      <trkpt lat="44.02885" lon="5.97863">
        <ele>458.69</ele>
        <time>2018-10-24T12:31:00Z</time>
      </trkpt>
      <trkpt lat="44.02888" lon="5.97858">
        <ele>460.13</ele>
        <time>2018-10-24T12:31:09Z</time>
      </trkpt>
      <trkpt lat="44.0289" lon="5.97858">
        <ele>461.57</ele>
        <time>2018-10-24T12:31:21Z</time>
      </trkpt>
      <trkpt lat="44.02891" lon="5.97864">
        <ele>463.97</ele>
        <time>2018-10-24T12:31:34Z</time>
      </trkpt>
      <trkpt lat="44.02892" lon="5.97864">
        <ele>466.86</ele>
        <time>2018-10-24T12:31:46Z</time>
      </trkpt>
      <trkpt lat="44.02894" lon="5.97861">
        <ele>467.34</ele>
        <time>2018-10-24T12:31:56Z</time>
      </trkpt>
      <trkpt lat="44.02897" lon="5.97869">
        <ele>467.82</ele>
        <time>2018-10-24T12:32:07Z</time>
      </trkpt>
      <trkpt lat="44.02898" lon="5.97859">
        <ele>468.3</ele>
        <time>2018-10-24T12:32:19Z</time>
      </trkpt>
      <trkpt lat="44.029" lon="5.97849">
        <ele>469.26</ele>
        <time>2018-10-24T12:32:31Z</time>
      </trkpt>
      <trkpt lat="44.02903" lon="5.97848">
        <ele>471.18</ele>
        <time>2018-10-24T12:32:42Z</time>
      </trkpt>
      <trkpt lat="44.02907" lon="5.97847">
        <ele>472.14</ele>
        <time>2018-10-24T12:32:51Z</time>
      </trkpt>
      <trkpt lat="44.02912" lon="5.97838">
        <ele>473.11</ele>
        <time>2018-10-24T12:33:04Z</time>
      </trkpt>
      <trkpt lat="44.02912" lon="5.97838">
        <ele>473.11</ele>
        <time>2018-10-24T12:33:19Z</time>
      </trkpt>
      <trkpt lat="44.02913" lon="5.97836">
        <ele>472.14</ele>
        <time>2018-10-24T12:33:37Z</time>
      </trkpt>
      <trkpt lat="44.02913" lon="5.97835">
        <ele>472.14</ele>
        <time>2018-10-24T12:33:57Z</time>
      </trkpt>
      <trkpt lat="44.02915" lon="5.97841">
        <ele>472.63</ele>
        <time>2018-10-24T12:34:11Z</time>
      </trkpt>
      <trkpt lat="44.0291" lon="5.97848">
        <ele>471.18</ele>
        <time>2018-10-24T12:34:24Z</time>
      </trkpt>
      <trkpt lat="44.0291" lon="5.9785">
        <ele>470.22</ele>
        <time>2018-10-24T12:34:40Z</time>
      </trkpt>
      <trkpt lat="44.0291" lon="5.97851">
        <ele>470.7</ele>
        <time>2018-10-24T12:34:57Z</time>
      </trkpt>
      <trkpt lat="44.02909" lon="5.97855">
        <ele>471.66</ele>
        <time>2018-10-24T12:35:10Z</time>
      </trkpt>
      <trkpt lat="44.0291" lon="5.9786">
        <ele>475.03</ele>
        <time>2018-10-24T12:35:28Z</time>
      </trkpt>
      <trkpt lat="44.0291" lon="5.9786">
        <ele>476.47</ele>
        <time>2018-10-24T12:35:39Z</time>
      </trkpt>
      <trkpt lat="44.0291" lon="5.9786">
        <ele>476.95</ele>
        <time>2018-10-24T12:35:54Z</time>
      </trkpt>
      <trkpt lat="44.0291" lon="5.9786">
        <ele>479.35</ele>
        <time>2018-10-24T12:36:05Z</time>
      </trkpt>
      <trkpt lat="44.02913" lon="5.97859">
        <ele>482.24</ele>
        <time>2018-10-24T12:36:13Z</time>
      </trkpt>
      <trkpt lat="44.02914" lon="5.97859">
        <ele>482.24</ele>
        <time>2018-10-24T12:36:14Z</time>
      </trkpt>
      <trkpt lat="44.02916" lon="5.9786">
        <ele>482.24</ele>
        <time>2018-10-24T12:36:25Z</time>
      </trkpt>
      <trkpt lat="44.0292" lon="5.97862">
        <ele>482.72</ele>
        <time>2018-10-24T12:36:39Z</time>
      </trkpt>
      <trkpt lat="44.02921" lon="5.97866">
        <ele>483.2</ele>
        <time>2018-10-24T12:36:48Z</time>
      </trkpt>
      <trkpt lat="44.02923" lon="5.9787">
        <ele>485.12</ele>
        <time>2018-10-24T12:37:01Z</time>
      </trkpt>
      <trkpt lat="44.02923" lon="5.97879">
        <ele>488.49</ele>
        <time>2018-10-24T12:37:12Z</time>
      </trkpt>
      <trkpt lat="44.02925" lon="5.97885">
        <ele>487.53</ele>
        <time>2018-10-24T12:37:25Z</time>
      </trkpt>
      <trkpt lat="44.02925" lon="5.97886">
        <ele>487.53</ele>
        <time>2018-10-24T12:37:46Z</time>
      </trkpt>
      <trkpt lat="44.02926" lon="5.97888">
        <ele>491.37</ele>
        <time>2018-10-24T12:37:54Z</time>
      </trkpt>
      <trkpt lat="44.02929" lon="5.97896">
        <ele>491.37</ele>
        <time>2018-10-24T12:38:06Z</time>
      </trkpt>
      <trkpt lat="44.0293" lon="5.97899">
        <ele>492.33</ele>
        <time>2018-10-24T12:38:15Z</time>
      </trkpt>
      <trkpt lat="44.02936" lon="5.97907">
        <ele>494.26</ele>
        <time>2018-10-24T12:38:27Z</time>
      </trkpt>
      <trkpt lat="44.02937" lon="5.9791">
        <ele>495.22</ele>
        <time>2018-10-24T12:38:40Z</time>
      </trkpt>
      <trkpt lat="44.0294" lon="5.97913">
        <ele>497.14</ele>
        <time>2018-10-24T12:38:56Z</time>
      </trkpt>
      <trkpt lat="44.02944" lon="5.97917">
        <ele>498.1</ele>
        <time>2018-10-24T12:39:06Z</time>
      </trkpt>
      <trkpt lat="44.02948" lon="5.97926">
        <ele>499.54</ele>
        <time>2018-10-24T12:39:19Z</time>
      </trkpt>
      <trkpt lat="44.02951" lon="5.97934">
        <ele>500.5</ele>
        <time>2018-10-24T12:39:35Z</time>
      </trkpt>
      <trkpt lat="44.02954" lon="5.97937">
        <ele>501.95</ele>
        <time>2018-10-24T12:39:45Z</time>
      </trkpt>
      <trkpt lat="44.02957" lon="5.97943">
        <ele>503.39</ele>
        <time>2018-10-24T12:40:02Z</time>
      </trkpt>
      <trkpt lat="44.02961" lon="5.97951">
        <ele>505.79</ele>
        <time>2018-10-24T12:40:15Z</time>
      </trkpt>
      <trkpt lat="44.02963" lon="5.97963">
        <ele>505.79</ele>
        <time>2018-10-24T12:40:29Z</time>
      </trkpt>
      <trkpt lat="44.02966" lon="5.97968">
        <ele>506.75</ele>
        <time>2018-10-24T12:40:43Z</time>
      </trkpt>
      <trkpt lat="44.02968" lon="5.97975">
        <ele>508.67</ele>
        <time>2018-10-24T12:40:55Z</time>
      </trkpt>
      <trkpt lat="44.0297" lon="5.97986">
        <ele>509.16</ele>
        <time>2018-10-24T12:41:09Z</time>
      </trkpt>
      <trkpt lat="44.02972" lon="5.97997">
        <ele>509.64</ele>
        <time>2018-10-24T12:41:22Z</time>
      </trkpt>
      <trkpt lat="44.02972" lon="5.97998">
        <ele>509.64</ele>
        <time>2018-10-24T12:41:38Z</time>
      </trkpt>
      <trkpt lat="44.02972" lon="5.98007">
        <ele>509.64</ele>
        <time>2018-10-24T12:41:53Z</time>
      </trkpt>
      <trkpt lat="44.02972" lon="5.98016">
        <ele>511.08</ele>
        <time>2018-10-24T12:42:20Z</time>
      </trkpt>
      <trkpt lat="44.02975" lon="5.98035">
        <ele>512.52</ele>
        <time>2018-10-24T12:42:35Z</time>
      </trkpt>
      <trkpt lat="44.02976" lon="5.98041">
        <ele>513.96</ele>
        <time>2018-10-24T12:42:47Z</time>
      </trkpt>
      <trkpt lat="44.02976" lon="5.98041">
        <ele>514.44</ele>
        <time>2018-10-24T12:43:06Z</time>
      </trkpt>
      <trkpt lat="44.02976" lon="5.98045">
        <ele>514.92</ele>
        <time>2018-10-24T12:43:21Z</time>
      </trkpt>
      <trkpt lat="44.02978" lon="5.98046">
        <ele>516.85</ele>
        <time>2018-10-24T12:43:33Z</time>
      </trkpt>
      <trkpt lat="44.02981" lon="5.98057">
        <ele>519.25</ele>
        <time>2018-10-24T12:43:45Z</time>
      </trkpt>
      <trkpt lat="44.02981" lon="5.98062">
        <ele>520.21</ele>
        <time>2018-10-24T12:43:58Z</time>
      </trkpt>
      <trkpt lat="44.02984" lon="5.98066">
        <ele>522.13</ele>
        <time>2018-10-24T12:44:12Z</time>
      </trkpt>
      <trkpt lat="44.02985" lon="5.9807">
        <ele>524.06</ele>
        <time>2018-10-24T12:44:28Z</time>
      </trkpt>
      <trkpt lat="44.02987" lon="5.98075">
        <ele>524.54</ele>
        <time>2018-10-24T12:44:40Z</time>
      </trkpt>
      <trkpt lat="44.02987" lon="5.98079">
        <ele>525.98</ele>
        <time>2018-10-24T12:44:52Z</time>
      </trkpt>
      <trkpt lat="44.02987" lon="5.98086">
        <ele>527.42</ele>
        <time>2018-10-24T12:45:06Z</time>
      </trkpt>
      <trkpt lat="44.02987" lon="5.98091">
        <ele>528.38</ele>
        <time>2018-10-24T12:45:25Z</time>
      </trkpt>
      <trkpt lat="44.02988" lon="5.98096">
        <ele>530.3</ele>
        <time>2018-10-24T12:45:41Z</time>
      </trkpt>
      <trkpt lat="44.0299" lon="5.98106">
        <ele>530.79</ele>
        <time>2018-10-24T12:45:54Z</time>
      </trkpt>
      <trkpt lat="44.02991" lon="5.9811">
        <ele>533.67</ele>
        <time>2018-10-24T12:46:07Z</time>
      </trkpt>
      <trkpt lat="44.02991" lon="5.98111">
        <ele>534.15</ele>
        <time>2018-10-24T12:46:39Z</time>
      </trkpt>
      <trkpt lat="44.02992" lon="5.98119">
        <ele>536.07</ele>
        <time>2018-10-24T12:46:57Z</time>
      </trkpt>
      <trkpt lat="44.02993" lon="5.98121">
        <ele>536.07</ele>
        <time>2018-10-24T12:47:17Z</time>
      </trkpt>
      <trkpt lat="44.02993" lon="5.98123">
        <ele>535.59</ele>
        <time>2018-10-24T12:47:34Z</time>
      </trkpt>
      <trkpt lat="44.02993" lon="5.98125">
        <ele>533.19</ele>
        <time>2018-10-24T12:47:50Z</time>
      </trkpt>
      <trkpt lat="44.02993" lon="5.98137">
        <ele>531.75</ele>
        <time>2018-10-24T12:48:05Z</time>
      </trkpt>
      <trkpt lat="44.02996" lon="5.98148">
        <ele>531.75</ele>
        <time>2018-10-24T12:48:20Z</time>
      </trkpt>
      <trkpt lat="44.02996" lon="5.98156">
        <ele>530.3</ele>
        <time>2018-10-24T12:48:35Z</time>
      </trkpt>
      <trkpt lat="44.02996" lon="5.98165">
        <ele>527.9</ele>
        <time>2018-10-24T12:48:48Z</time>
      </trkpt>
      <trkpt lat="44.02997" lon="5.98167">
        <ele>531.27</ele>
        <time>2018-10-24T12:48:50Z</time>
      </trkpt>
      <trkpt lat="44.02997" lon="5.98167">
        <ele>530.79</ele>
        <time>2018-10-24T12:48:51Z</time>
      </trkpt>
      <trkpt lat="44.02997" lon="5.98168">
        <ele>528.38</ele>
        <time>2018-10-24T12:48:56Z</time>
      </trkpt>
      <trkpt lat="44.02997" lon="5.98173">
        <ele>525.5</ele>
        <time>2018-10-24T12:49:12Z</time>
      </trkpt>
      <trkpt lat="44.02999" lon="5.98182">
        <ele>526.46</ele>
        <time>2018-10-24T12:49:26Z</time>
      </trkpt>
      <trkpt lat="44.03" lon="5.9819">
        <ele>525.5</ele>
        <time>2018-10-24T12:49:39Z</time>
      </trkpt>
      <trkpt lat="44.03001" lon="5.98197">
        <ele>522.13</ele>
        <time>2018-10-24T12:49:48Z</time>
      </trkpt>
      <trkpt lat="44.03" lon="5.98201">
        <ele>522.13</ele>
        <time>2018-10-24T12:49:53Z</time>
      </trkpt>
      <trkpt lat="44.03" lon="5.98205">
        <ele>523.58</ele>
        <time>2018-10-24T12:49:57Z</time>
      </trkpt>
      <trkpt lat="44.03" lon="5.98208">
        <ele>524.54</ele>
        <time>2018-10-24T12:50:01Z</time>
      </trkpt>
      <trkpt lat="44.03" lon="5.98211">
        <ele>522.61</ele>
        <time>2018-10-24T12:50:05Z</time>
      </trkpt>
      <trkpt lat="44.03" lon="5.98211">
        <ele>520.21</ele>
        <time>2018-10-24T12:50:07Z</time>
      </trkpt>
      <trkpt lat="44.03" lon="5.98211">
        <ele>521.17</ele>
        <time>2018-10-24T12:50:09Z</time>
      </trkpt>
      <trkpt lat="44.03001" lon="5.98213">
        <ele>523.09</ele>
        <time>2018-10-24T12:50:17Z</time>
      </trkpt>
      <trkpt lat="44.03001" lon="5.98216">
        <ele>521.17</ele>
        <time>2018-10-24T12:50:20Z</time>
      </trkpt>
      <trkpt lat="44.03003" lon="5.98225">
        <ele>522.13</ele>
        <time>2018-10-24T12:50:31Z</time>
      </trkpt>
      <trkpt lat="44.03006" lon="5.98229">
        <ele>523.58</ele>
        <time>2018-10-24T12:50:41Z</time>
      </trkpt>
      <trkpt lat="44.03009" lon="5.98234">
        <ele>525.98</ele>
        <time>2018-10-24T12:50:55Z</time>
      </trkpt>
      <trkpt lat="44.03011" lon="5.98237">
        <ele>526.46</ele>
        <time>2018-10-24T12:51:05Z</time>
      </trkpt>
      <trkpt lat="44.03015" lon="5.98246">
        <ele>527.9</ele>
        <time>2018-10-24T12:51:20Z</time>
      </trkpt>
      <trkpt lat="44.03017" lon="5.98257">
        <ele>527.9</ele>
        <time>2018-10-24T12:51:33Z</time>
      </trkpt>
      <trkpt lat="44.03021" lon="5.98274">
        <ele>527.9</ele>
        <time>2018-10-24T12:51:50Z</time>
      </trkpt>
      <trkpt lat="44.03022" lon="5.98284">
        <ele>528.38</ele>
        <time>2018-10-24T12:52:02Z</time>
      </trkpt>
      <trkpt lat="44.03022" lon="5.98294">
        <ele>526.94</ele>
        <time>2018-10-24T12:52:15Z</time>
      </trkpt>
      <trkpt lat="44.03022" lon="5.98299">
        <ele>528.38</ele>
        <time>2018-10-24T12:52:20Z</time>
      </trkpt>
      <trkpt lat="44.03025" lon="5.98314">
        <ele>529.34</ele>
        <time>2018-10-24T12:52:35Z</time>
      </trkpt>
      <trkpt lat="44.03027" lon="5.98318">
        <ele>530.3</ele>
        <time>2018-10-24T12:52:42Z</time>
      </trkpt>
      <trkpt lat="44.03025" lon="5.98328">
        <ele>528.38</ele>
        <time>2018-10-24T12:52:55Z</time>
      </trkpt>
      <trkpt lat="44.03026" lon="5.98335">
        <ele>529.82</ele>
        <time>2018-10-24T12:53:09Z</time>
      </trkpt>
      <trkpt lat="44.03028" lon="5.98342">
        <ele>531.75</ele>
        <time>2018-10-24T12:53:22Z</time>
      </trkpt>
      <trkpt lat="44.03029" lon="5.98353">
        <ele>532.71</ele>
        <time>2018-10-24T12:53:36Z</time>
      </trkpt>
      <trkpt lat="44.03029" lon="5.98367">
        <ele>533.67</ele>
        <time>2018-10-24T12:53:50Z</time>
      </trkpt>
      <trkpt lat="44.03028" lon="5.98374">
        <ele>529.82</ele>
        <time>2018-10-24T12:54:02Z</time>
      </trkpt>
      <trkpt lat="44.03028" lon="5.98374">
        <ele>529.82</ele>
        <time>2018-10-24T12:54:03Z</time>
      </trkpt>
      <trkpt lat="44.03028" lon="5.98374">
        <ele>533.67</ele>
        <time>2018-10-24T12:54:09Z</time>
      </trkpt>
      <trkpt lat="44.03026" lon="5.98386">
        <ele>534.15</ele>
        <time>2018-10-24T12:54:25Z</time>
      </trkpt>
      <trkpt lat="44.03025" lon="5.9839">
        <ele>533.67</ele>
        <time>2018-10-24T12:54:30Z</time>
      </trkpt>
      <trkpt lat="44.03026" lon="5.98396">
        <ele>535.11</ele>
        <time>2018-10-24T12:54:42Z</time>
      </trkpt>
      <trkpt lat="44.03026" lon="5.98405">
        <ele>536.07</ele>
        <time>2018-10-24T12:54:55Z</time>
      </trkpt>
      <trkpt lat="44.03027" lon="5.98411">
        <ele>537.99</ele>
        <time>2018-10-24T12:55:07Z</time>
      </trkpt>
      <trkpt lat="44.03028" lon="5.98423">
        <ele>538.96</ele>
        <time>2018-10-24T12:55:21Z</time>
      </trkpt>
      <trkpt lat="44.03029" lon="5.98434">
        <ele>539.44</ele>
        <time>2018-10-24T12:55:37Z</time>
      </trkpt>
      <trkpt lat="44.03032" lon="5.98444">
        <ele>541.84</ele>
        <time>2018-10-24T12:55:50Z</time>
      </trkpt>
      <trkpt lat="44.03032" lon="5.98454">
        <ele>543.28</ele>
        <time>2018-10-24T12:56:03Z</time>
      </trkpt>
      <trkpt lat="44.03036" lon="5.98468">
        <ele>545.2</ele>
        <time>2018-10-24T12:56:17Z</time>
      </trkpt>
      <trkpt lat="44.03037" lon="5.98476">
        <ele>547.13</ele>
        <time>2018-10-24T12:56:31Z</time>
      </trkpt>
      <trkpt lat="44.03041" lon="5.98485">
        <ele>548.57</ele>
        <time>2018-10-24T12:56:44Z</time>
      </trkpt>
      <trkpt lat="44.03042" lon="5.98497">
        <ele>549.53</ele>
        <time>2018-10-24T12:56:57Z</time>
      </trkpt>
      <trkpt lat="44.03044" lon="5.98505">
        <ele>550.49</ele>
        <time>2018-10-24T12:57:08Z</time>
      </trkpt>
      <trkpt lat="44.03046" lon="5.98512">
        <ele>551.93</ele>
        <time>2018-10-24T12:57:20Z</time>
      </trkpt>
      <trkpt lat="44.03045" lon="5.98514">
        <ele>551.45</ele>
        <time>2018-10-24T12:57:40Z</time>
      </trkpt>
      <trkpt lat="44.03046" lon="5.98519">
        <ele>552.41</ele>
        <time>2018-10-24T12:58:08Z</time>
      </trkpt>
      <trkpt lat="44.03047" lon="5.98524">
        <ele>551.45</ele>
        <time>2018-10-24T12:58:23Z</time>
      </trkpt>
      <trkpt lat="44.03046" lon="5.98525">
        <ele>551.93</ele>
        <time>2018-10-24T12:58:59Z</time>
      </trkpt>
      <trkpt lat="44.03046" lon="5.98532">
        <ele>552.9</ele>
        <time>2018-10-24T12:59:25Z</time>
      </trkpt>
      <trkpt lat="44.03046" lon="5.98532">
        <ele>553.86</ele>
        <time>2018-10-24T12:59:42Z</time>
      </trkpt>
      <trkpt lat="44.03046" lon="5.98533">
        <ele>553.86</ele>
        <time>2018-10-24T13:00:22Z</time>
      </trkpt>
      <trkpt lat="44.03046" lon="5.98536">
        <ele>553.38</ele>
        <time>2018-10-24T13:00:37Z</time>
      </trkpt>
      <trkpt lat="44.03047" lon="5.98543">
        <ele>554.34</ele>
        <time>2018-10-24T13:00:51Z</time>
      </trkpt>
      <trkpt lat="44.03048" lon="5.98554">
        <ele>554.82</ele>
        <time>2018-10-24T13:01:22Z</time>
      </trkpt>
      <trkpt lat="44.0305" lon="5.98563">
        <ele>556.26</ele>
        <time>2018-10-24T13:01:34Z</time>
      </trkpt>
      <trkpt lat="44.03052" lon="5.98572">
        <ele>558.66</ele>
        <time>2018-10-24T13:01:46Z</time>
      </trkpt>
      <trkpt lat="44.03053" lon="5.9858">
        <ele>560.11</ele>
        <time>2018-10-24T13:01:58Z</time>
      </trkpt>
      <trkpt lat="44.03053" lon="5.9859">
        <ele>562.03</ele>
        <time>2018-10-24T13:02:13Z</time>
      </trkpt>
      <trkpt lat="44.03053" lon="5.98603">
        <ele>562.99</ele>
        <time>2018-10-24T13:02:26Z</time>
      </trkpt>
      <trkpt lat="44.03052" lon="5.98615">
        <ele>564.43</ele>
        <time>2018-10-24T13:02:38Z</time>
      </trkpt>
      <trkpt lat="44.03052" lon="5.98615">
        <ele>563.95</ele>
        <time>2018-10-24T13:02:54Z</time>
      </trkpt>
      <trkpt lat="44.03051" lon="5.98622">
        <ele>564.43</ele>
        <time>2018-10-24T13:03:06Z</time>
      </trkpt>
      <trkpt lat="44.03051" lon="5.98629">
        <ele>565.39</ele>
        <time>2018-10-24T13:03:20Z</time>
      </trkpt>
      <trkpt lat="44.03053" lon="5.98646">
        <ele>566.83</ele>
        <time>2018-10-24T13:03:36Z</time>
      </trkpt>
      <trkpt lat="44.03054" lon="5.98658">
        <ele>568.28</ele>
        <time>2018-10-24T13:03:50Z</time>
      </trkpt>
      <trkpt lat="44.03054" lon="5.98671">
        <ele>568.76</ele>
        <time>2018-10-24T13:04:07Z</time>
      </trkpt>
      <trkpt lat="44.03055" lon="5.98682">
        <ele>569.72</ele>
        <time>2018-10-24T13:04:19Z</time>
      </trkpt>
      <trkpt lat="44.03054" lon="5.98696">
        <ele>569.24</ele>
        <time>2018-10-24T13:04:31Z</time>
      </trkpt>
      <trkpt lat="44.03053" lon="5.98704">
        <ele>569.72</ele>
        <time>2018-10-24T13:04:38Z</time>
      </trkpt>
      <trkpt lat="44.03054" lon="5.98718">
        <ele>571.16</ele>
        <time>2018-10-24T13:04:51Z</time>
      </trkpt>
      <trkpt lat="44.03055" lon="5.98726">
        <ele>573.56</ele>
        <time>2018-10-24T13:05:02Z</time>
      </trkpt>
      <trkpt lat="44.03055" lon="5.98729">
        <ele>575.97</ele>
        <time>2018-10-24T13:05:14Z</time>
      </trkpt>
      <trkpt lat="44.03055" lon="5.98738">
        <ele>576.93</ele>
        <time>2018-10-24T13:05:28Z</time>
      </trkpt>
      <trkpt lat="44.03054" lon="5.98746">
        <ele>578.85</ele>
        <time>2018-10-24T13:05:39Z</time>
      </trkpt>
      <trkpt lat="44.03055" lon="5.9876">
        <ele>579.33</ele>
        <time>2018-10-24T13:05:53Z</time>
      </trkpt>
      <trkpt lat="44.03056" lon="5.9877">
        <ele>581.25</ele>
        <time>2018-10-24T13:06:06Z</time>
      </trkpt>
      <trkpt lat="44.03055" lon="5.98779">
        <ele>583.66</ele>
        <time>2018-10-24T13:06:21Z</time>
      </trkpt>
      <trkpt lat="44.03056" lon="5.98781">
        <ele>584.14</ele>
        <time>2018-10-24T13:06:26Z</time>
      </trkpt>
      <trkpt lat="44.03056" lon="5.9879">
        <ele>587.02</ele>
        <time>2018-10-24T13:06:39Z</time>
      </trkpt>
      <trkpt lat="44.03059" lon="5.98804">
        <ele>588.95</ele>
        <time>2018-10-24T13:06:55Z</time>
      </trkpt>
      <trkpt lat="44.03059" lon="5.98817">
        <ele>590.39</ele>
        <time>2018-10-24T13:07:09Z</time>
      </trkpt>
      <trkpt lat="44.03059" lon="5.98831">
        <ele>591.83</ele>
        <time>2018-10-24T13:07:23Z</time>
      </trkpt>
      <trkpt lat="44.03057" lon="5.98843">
        <ele>593.27</ele>
        <time>2018-10-24T13:07:36Z</time>
      </trkpt>
      <trkpt lat="44.03059" lon="5.98854">
        <ele>595.67</ele>
        <time>2018-10-24T13:07:49Z</time>
      </trkpt>
      <trkpt lat="44.03056" lon="5.98863">
        <ele>595.67</ele>
        <time>2018-10-24T13:08:02Z</time>
      </trkpt>
      <trkpt lat="44.0306" lon="5.98875">
        <ele>595.67</ele>
        <time>2018-10-24T13:08:13Z</time>
      </trkpt>
      <trkpt lat="44.03062" lon="5.98888">
        <ele>597.6</ele>
        <time>2018-10-24T13:08:26Z</time>
      </trkpt>
      <trkpt lat="44.03063" lon="5.98901">
        <ele>600</ele>
        <time>2018-10-24T13:08:39Z</time>
      </trkpt>
      <trkpt lat="44.03066" lon="5.98918">
        <ele>600.48</ele>
        <time>2018-10-24T13:08:54Z</time>
      </trkpt>
      <trkpt lat="44.03068" lon="5.98931">
        <ele>600.96</ele>
        <time>2018-10-24T13:09:08Z</time>
      </trkpt>
      <trkpt lat="44.03068" lon="5.9894">
        <ele>602.88</ele>
        <time>2018-10-24T13:09:20Z</time>
      </trkpt>
      <trkpt lat="44.03072" lon="5.98953">
        <ele>604.33</ele>
        <time>2018-10-24T13:09:36Z</time>
      </trkpt>
      <trkpt lat="44.03073" lon="5.9896">
        <ele>603.36</ele>
        <time>2018-10-24T13:10:00Z</time>
      </trkpt>
      <trkpt lat="44.03076" lon="5.98968">
        <ele>603.85</ele>
        <time>2018-10-24T13:10:12Z</time>
      </trkpt>
      <trkpt lat="44.03076" lon="5.98967">
        <ele>603.85</ele>
        <time>2018-10-24T13:11:20Z</time>
      </trkpt>
      <trkpt lat="44.03076" lon="5.98968">
        <ele>604.33</ele>
        <time>2018-10-24T13:11:50Z</time>
      </trkpt>
      <trkpt lat="44.03075" lon="5.98969">
        <ele>603.85</ele>
        <time>2018-10-24T13:13:04Z</time>
      </trkpt>
      <trkpt lat="44.03075" lon="5.98972">
        <ele>604.33</ele>
        <time>2018-10-24T13:13:23Z</time>
      </trkpt>
      <trkpt lat="44.03077" lon="5.98981">
        <ele>604.33</ele>
        <time>2018-10-24T13:13:38Z</time>
      </trkpt>
      <trkpt lat="44.03079" lon="5.98985">
        <ele>604.81</ele>
        <time>2018-10-24T13:13:52Z</time>
      </trkpt>
      <trkpt lat="44.03082" lon="5.98989">
        <ele>604.81</ele>
        <time>2018-10-24T13:14:09Z</time>
      </trkpt>
      <trkpt lat="44.03082" lon="5.98989">
        <ele>605.29</ele>
        <time>2018-10-24T13:14:59Z</time>
      </trkpt>
      <trkpt lat="44.03085" lon="5.98998">
        <ele>604.81</ele>
        <time>2018-10-24T13:15:22Z</time>
      </trkpt>
      <trkpt lat="44.03089" lon="5.99008">
        <ele>607.21</ele>
        <time>2018-10-24T13:15:32Z</time>
      </trkpt>
      <trkpt lat="44.03093" lon="5.99018">
        <ele>606.25</ele>
        <time>2018-10-24T13:15:44Z</time>
      </trkpt>
      <trkpt lat="44.03099" lon="5.9903">
        <ele>604.33</ele>
        <time>2018-10-24T13:15:56Z</time>
      </trkpt>
      <trkpt lat="44.031" lon="5.99032">
        <ele>604.81</ele>
        <time>2018-10-24T13:15:59Z</time>
      </trkpt>
      <trkpt lat="44.03105" lon="5.99042">
        <ele>605.29</ele>
        <time>2018-10-24T13:16:11Z</time>
      </trkpt>
      <trkpt lat="44.03113" lon="5.99054">
        <ele>605.29</ele>
        <time>2018-10-24T13:16:25Z</time>
      </trkpt>
      <trkpt lat="44.03121" lon="5.99063">
        <ele>604.33</ele>
        <time>2018-10-24T13:16:41Z</time>
      </trkpt>
      <trkpt lat="44.03127" lon="5.99069">
        <ele>603.36</ele>
        <time>2018-10-24T13:16:54Z</time>
      </trkpt>
      <trkpt lat="44.03127" lon="5.9907">
        <ele>603.36</ele>
        <time>2018-10-24T13:16:55Z</time>
      </trkpt>
      <trkpt lat="44.03134" lon="5.99079">
        <ele>600.96</ele>
        <time>2018-10-24T13:17:09Z</time>
      </trkpt>
      <trkpt lat="44.03142" lon="5.99089">
        <ele>600.96</ele>
        <time>2018-10-24T13:17:25Z</time>
      </trkpt>
      <trkpt lat="44.03145" lon="5.99091">
        <ele>598.56</ele>
        <time>2018-10-24T13:17:40Z</time>
      </trkpt>
      <trkpt lat="44.03144" lon="5.99085">
        <ele>597.12</ele>
        <time>2018-10-24T13:18:05Z</time>
      </trkpt>
      <trkpt lat="44.0314" lon="5.99076">
        <ele>596.64</ele>
        <time>2018-10-24T13:18:18Z</time>
      </trkpt>
      <trkpt lat="44.03135" lon="5.99065">
        <ele>594.71</ele>
        <time>2018-10-24T13:18:33Z</time>
      </trkpt>
      <trkpt lat="44.03128" lon="5.99052">
        <ele>593.75</ele>
        <time>2018-10-24T13:18:48Z</time>
      </trkpt>
      <trkpt lat="44.03123" lon="5.9904">
        <ele>590.87</ele>
        <time>2018-10-24T13:19:03Z</time>
      </trkpt>
      <trkpt lat="44.0312" lon="5.99024">
        <ele>588.95</ele>
        <time>2018-10-24T13:19:17Z</time>
      </trkpt>
      <trkpt lat="44.03118" lon="5.99008">
        <ele>588.46</ele>
        <time>2018-10-24T13:19:31Z</time>
      </trkpt>
      <trkpt lat="44.03114" lon="5.98999">
        <ele>586.54</ele>
        <time>2018-10-24T13:19:43Z</time>
      </trkpt>
      <trkpt lat="44.03108" lon="5.98984">
        <ele>585.58</ele>
        <time>2018-10-24T13:19:58Z</time>
      </trkpt>
      <trkpt lat="44.03107" lon="5.98972">
        <ele>583.66</ele>
        <time>2018-10-24T13:20:10Z</time>
      </trkpt>
      <trkpt lat="44.03105" lon="5.98959">
        <ele>582.7</ele>
        <time>2018-10-24T13:20:22Z</time>
      </trkpt>
      <trkpt lat="44.03104" lon="5.98946">
        <ele>580.77</ele>
        <time>2018-10-24T13:20:34Z</time>
      </trkpt>
      <trkpt lat="44.03106" lon="5.9893">
        <ele>580.29</ele>
        <time>2018-10-24T13:20:48Z</time>
      </trkpt>
      <trkpt lat="44.03098" lon="5.9892">
        <ele>577.89</ele>
        <time>2018-10-24T13:21:03Z</time>
      </trkpt>
      <trkpt lat="44.03096" lon="5.98909">
        <ele>575.97</ele>
        <time>2018-10-24T13:21:12Z</time>
      </trkpt>
      <trkpt lat="44.03094" lon="5.98894">
        <ele>574.04</ele>
        <time>2018-10-24T13:21:25Z</time>
      </trkpt>
      <trkpt lat="44.03092" lon="5.98879">
        <ele>572.6</ele>
        <time>2018-10-24T13:21:36Z</time>
      </trkpt>
      <trkpt lat="44.03091" lon="5.98866">
        <ele>571.16</ele>
        <time>2018-10-24T13:21:48Z</time>
      </trkpt>
      <trkpt lat="44.03093" lon="5.98865">
        <ele>571.16</ele>
        <time>2018-10-24T13:21:57Z</time>
      </trkpt>
      <trkpt lat="44.03096" lon="5.98872">
        <ele>568.28</ele>
        <time>2018-10-24T13:22:09Z</time>
      </trkpt>
      <trkpt lat="44.03101" lon="5.98885">
        <ele>567.8</ele>
        <time>2018-10-24T13:22:24Z</time>
      </trkpt>
      <trkpt lat="44.03112" lon="5.98898">
        <ele>566.35</ele>
        <time>2018-10-24T13:22:40Z</time>
      </trkpt>
      <trkpt lat="44.03116" lon="5.98902">
        <ele>567.32</ele>
        <time>2018-10-24T13:22:52Z</time>
      </trkpt>
      <trkpt lat="44.03123" lon="5.98908">
        <ele>568.76</ele>
        <time>2018-10-24T13:23:05Z</time>
      </trkpt>
      <trkpt lat="44.03131" lon="5.98904">
        <ele>568.76</ele>
        <time>2018-10-24T13:23:16Z</time>
      </trkpt>
      <trkpt lat="44.0313" lon="5.98906">
        <ele>568.28</ele>
        <time>2018-10-24T13:24:07Z</time>
      </trkpt>
      <trkpt lat="44.0313" lon="5.98908">
        <ele>569.24</ele>
        <time>2018-10-24T13:24:29Z</time>
      </trkpt>
      <trkpt lat="44.03129" lon="5.98913">
        <ele>567.32</ele>
        <time>2018-10-24T13:24:43Z</time>
      </trkpt>
      <trkpt lat="44.0313" lon="5.98922">
        <ele>565.87</ele>
        <time>2018-10-24T13:24:57Z</time>
      </trkpt>
      <trkpt lat="44.0313" lon="5.98941">
        <ele>564.91</ele>
        <time>2018-10-24T13:25:13Z</time>
      </trkpt>
      <trkpt lat="44.03134" lon="5.98949">
        <ele>565.87</ele>
        <time>2018-10-24T13:25:23Z</time>
      </trkpt>
      <trkpt lat="44.0314" lon="5.98954">
        <ele>562.51</ele>
        <time>2018-10-24T13:25:33Z</time>
      </trkpt>
      <trkpt lat="44.03141" lon="5.98954">
        <ele>562.03</ele>
        <time>2018-10-24T13:25:34Z</time>
      </trkpt>
      <trkpt lat="44.03141" lon="5.98954">
        <ele>561.07</ele>
        <time>2018-10-24T13:25:36Z</time>
      </trkpt>
      <trkpt lat="44.03149" lon="5.98954">
        <ele>559.14</ele>
        <time>2018-10-24T13:25:51Z</time>
      </trkpt>
      <trkpt lat="44.03154" lon="5.98961">
        <ele>558.66</ele>
        <time>2018-10-24T13:26:05Z</time>
      </trkpt>
      <trkpt lat="44.03155" lon="5.98975">
        <ele>559.62</ele>
        <time>2018-10-24T13:26:18Z</time>
      </trkpt>
      <trkpt lat="44.03156" lon="5.98984">
        <ele>559.14</ele>
        <time>2018-10-24T13:26:30Z</time>
      </trkpt>
      <trkpt lat="44.03159" lon="5.98989">
        <ele>557.7</ele>
        <time>2018-10-24T13:26:36Z</time>
      </trkpt>
      <trkpt lat="44.0316" lon="5.99001">
        <ele>558.66</ele>
        <time>2018-10-24T13:26:48Z</time>
      </trkpt>
      <trkpt lat="44.03161" lon="5.99007">
        <ele>560.59</ele>
        <time>2018-10-24T13:26:55Z</time>
      </trkpt>
      <trkpt lat="44.03161" lon="5.99011">
        <ele>562.51</ele>
        <time>2018-10-24T13:27:02Z</time>
      </trkpt>
      <trkpt lat="44.03162" lon="5.99019">
        <ele>560.59</ele>
        <time>2018-10-24T13:27:15Z</time>
      </trkpt>
      <trkpt lat="44.03168" lon="5.99028">
        <ele>562.03</ele>
        <time>2018-10-24T13:27:26Z</time>
      </trkpt>
      <trkpt lat="44.03176" lon="5.99032">
        <ele>562.99</ele>
        <time>2018-10-24T13:27:40Z</time>
      </trkpt>
      <trkpt lat="44.03185" lon="5.99038">
        <ele>563.95</ele>
        <time>2018-10-24T13:27:52Z</time>
      </trkpt>
      <trkpt lat="44.0319" lon="5.99047">
        <ele>562.51</ele>
        <time>2018-10-24T13:28:04Z</time>
      </trkpt>
      <trkpt lat="44.03189" lon="5.99059">
        <ele>563.47</ele>
        <time>2018-10-24T13:28:17Z</time>
      </trkpt>
      <trkpt lat="44.03191" lon="5.99067">
        <ele>563.47</ele>
        <time>2018-10-24T13:28:28Z</time>
      </trkpt>
      <trkpt lat="44.03192" lon="5.99069">
        <ele>562.51</ele>
        <time>2018-10-24T13:28:30Z</time>
      </trkpt>
      <trkpt lat="44.03202" lon="5.99077">
        <ele>562.51</ele>
        <time>2018-10-24T13:28:45Z</time>
      </trkpt>
      <trkpt lat="44.03205" lon="5.99088">
        <ele>564.43</ele>
        <time>2018-10-24T13:28:56Z</time>
      </trkpt>
      <trkpt lat="44.03206" lon="5.99099">
        <ele>561.07</ele>
        <time>2018-10-24T13:29:05Z</time>
      </trkpt>
      <trkpt lat="44.03206" lon="5.991">
        <ele>560.59</ele>
        <time>2018-10-24T13:29:06Z</time>
      </trkpt>
      <trkpt lat="44.0321" lon="5.99107">
        <ele>562.51</ele>
        <time>2018-10-24T13:29:18Z</time>
      </trkpt>
      <trkpt lat="44.03213" lon="5.99116">
        <ele>562.03</ele>
        <time>2018-10-24T13:29:32Z</time>
      </trkpt>
      <trkpt lat="44.0321" lon="5.99129">
        <ele>558.66</ele>
        <time>2018-10-24T13:29:46Z</time>
      </trkpt>
      <trkpt lat="44.03212" lon="5.99131">
        <ele>562.03</ele>
        <time>2018-10-24T13:29:48Z</time>
      </trkpt>
      <trkpt lat="44.03216" lon="5.99135">
        <ele>560.59</ele>
        <time>2018-10-24T13:29:52Z</time>
      </trkpt>
      <trkpt lat="44.03221" lon="5.99142">
        <ele>558.18</ele>
        <time>2018-10-24T13:30:07Z</time>
      </trkpt>
      <trkpt lat="44.03225" lon="5.99151">
        <ele>558.18</ele>
        <time>2018-10-24T13:30:16Z</time>
      </trkpt>
      <trkpt lat="44.0323" lon="5.99165">
        <ele>559.14</ele>
        <time>2018-10-24T13:30:31Z</time>
      </trkpt>
      <trkpt lat="44.03235" lon="5.99168">
        <ele>558.66</ele>
        <time>2018-10-24T13:30:38Z</time>
      </trkpt>
      <trkpt lat="44.03235" lon="5.99168">
        <ele>559.62</ele>
        <time>2018-10-24T13:30:40Z</time>
      </trkpt>
      <trkpt lat="44.03235" lon="5.99168">
        <ele>558.18</ele>
        <time>2018-10-24T13:30:42Z</time>
      </trkpt>
      <trkpt lat="44.03244" lon="5.99169">
        <ele>556.74</ele>
        <time>2018-10-24T13:30:54Z</time>
      </trkpt>
      <trkpt lat="44.03246" lon="5.99167">
        <ele>554.82</ele>
        <time>2018-10-24T13:30:58Z</time>
      </trkpt>
      <trkpt lat="44.03243" lon="5.99173">
        <ele>553.86</ele>
        <time>2018-10-24T13:31:11Z</time>
      </trkpt>
      <trkpt lat="44.03246" lon="5.99186">
        <ele>552.9</ele>
        <time>2018-10-24T13:31:27Z</time>
      </trkpt>
      <trkpt lat="44.03248" lon="5.99191">
        <ele>551.45</ele>
        <time>2018-10-24T13:31:34Z</time>
      </trkpt>
      <trkpt lat="44.0325" lon="5.992">
        <ele>549.53</ele>
        <time>2018-10-24T13:31:47Z</time>
      </trkpt>
      <trkpt lat="44.03254" lon="5.99214">
        <ele>548.57</ele>
        <time>2018-10-24T13:32:01Z</time>
      </trkpt>
      <trkpt lat="44.03262" lon="5.99225">
        <ele>548.09</ele>
        <time>2018-10-24T13:32:15Z</time>
      </trkpt>
      <trkpt lat="44.03262" lon="5.99235">
        <ele>544.72</ele>
        <time>2018-10-24T13:32:27Z</time>
      </trkpt>
      <trkpt lat="44.03262" lon="5.99235">
        <ele>544.72</ele>
        <time>2018-10-24T13:32:28Z</time>
      </trkpt>
      <trkpt lat="44.03264" lon="5.99243">
        <ele>544.24</ele>
        <time>2018-10-24T13:32:39Z</time>
      </trkpt>
      <trkpt lat="44.03273" lon="5.9925">
        <ele>544.24</ele>
        <time>2018-10-24T13:32:50Z</time>
      </trkpt>
      <trkpt lat="44.03275" lon="5.99255">
        <ele>547.13</ele>
        <time>2018-10-24T13:33:00Z</time>
      </trkpt>
      <trkpt lat="44.03278" lon="5.99263">
        <ele>548.09</ele>
        <time>2018-10-24T13:33:15Z</time>
      </trkpt>
      <trkpt lat="44.0328" lon="5.99269">
        <ele>551.93</ele>
        <time>2018-10-24T13:33:26Z</time>
      </trkpt>
      <trkpt lat="44.0328" lon="5.99282">
        <ele>551.93</ele>
        <time>2018-10-24T13:33:38Z</time>
      </trkpt>
      <trkpt lat="44.0328" lon="5.99292">
        <ele>553.86</ele>
        <time>2018-10-24T13:33:53Z</time>
      </trkpt>
      <trkpt lat="44.03286" lon="5.993">
        <ele>550.97</ele>
        <time>2018-10-24T13:34:05Z</time>
      </trkpt>
      <trkpt lat="44.0329" lon="5.99305">
        <ele>548.09</ele>
        <time>2018-10-24T13:34:17Z</time>
      </trkpt>
      <trkpt lat="44.03295" lon="5.99312">
        <ele>548.09</ele>
        <time>2018-10-24T13:34:27Z</time>
      </trkpt>
      <trkpt lat="44.033" lon="5.99318">
        <ele>547.61</ele>
        <time>2018-10-24T13:34:36Z</time>
      </trkpt>
      <trkpt lat="44.03307" lon="5.99316">
        <ele>544.72</ele>
        <time>2018-10-24T13:34:48Z</time>
      </trkpt>
      <trkpt lat="44.03309" lon="5.99319">
        <ele>545.2</ele>
        <time>2018-10-24T13:35:04Z</time>
      </trkpt>
      <trkpt lat="44.03309" lon="5.99322">
        <ele>545.69</ele>
        <time>2018-10-24T13:35:18Z</time>
      </trkpt>
      <trkpt lat="44.03309" lon="5.99326">
        <ele>546.17</ele>
        <time>2018-10-24T13:35:32Z</time>
      </trkpt>
      <trkpt lat="44.03309" lon="5.99326">
        <ele>545.69</ele>
        <time>2018-10-24T13:36:10Z</time>
      </trkpt>
      <trkpt lat="44.03308" lon="5.99327">
        <ele>545.69</ele>
        <time>2018-10-24T13:37:15Z</time>
      </trkpt>
      <trkpt lat="44.03308" lon="5.99327">
        <ele>547.13</ele>
        <time>2018-10-24T13:37:46Z</time>
      </trkpt>
      <trkpt lat="44.03309" lon="5.99329">
        <ele>546.17</ele>
        <time>2018-10-24T13:38:14Z</time>
      </trkpt>
      <trkpt lat="44.03309" lon="5.99329">
        <ele>544.72</ele>
        <time>2018-10-24T13:38:16Z</time>
      </trkpt>
      <trkpt lat="44.03308" lon="5.99339">
        <ele>545.2</ele>
        <time>2018-10-24T13:39:53Z</time>
      </trkpt>
      <trkpt lat="44.03305" lon="5.9935">
        <ele>546.17</ele>
        <time>2018-10-24T13:40:05Z</time>
      </trkpt>
      <trkpt lat="44.03305" lon="5.99353">
        <ele>546.65</ele>
        <time>2018-10-24T13:40:11Z</time>
      </trkpt>
      <trkpt lat="44.03302" lon="5.99358">
        <ele>548.09</ele>
        <time>2018-10-24T13:40:17Z</time>
      </trkpt>
      <trkpt lat="44.03298" lon="5.99371">
        <ele>549.05</ele>
        <time>2018-10-24T13:40:31Z</time>
      </trkpt>
      <trkpt lat="44.03298" lon="5.99372">
        <ele>548.57</ele>
        <time>2018-10-24T13:40:32Z</time>
      </trkpt>
      <trkpt lat="44.03298" lon="5.99384">
        <ele>549.53</ele>
        <time>2018-10-24T13:40:45Z</time>
      </trkpt>
      <trkpt lat="44.03304" lon="5.99393">
        <ele>549.05</ele>
        <time>2018-10-24T13:40:57Z</time>
      </trkpt>
      <trkpt lat="44.03301" lon="5.99402">
        <ele>549.05</ele>
        <time>2018-10-24T13:41:08Z</time>
      </trkpt>
      <trkpt lat="44.033" lon="5.99403">
        <ele>550.01</ele>
        <time>2018-10-24T13:41:10Z</time>
      </trkpt>
      <trkpt lat="44.03299" lon="5.99417">
        <ele>549.53</ele>
        <time>2018-10-24T13:41:25Z</time>
      </trkpt>
      <trkpt lat="44.033" lon="5.99425">
        <ele>549.53</ele>
        <time>2018-10-24T13:41:36Z</time>
      </trkpt>
      <trkpt lat="44.03303" lon="5.99432">
        <ele>550.01</ele>
        <time>2018-10-24T13:41:47Z</time>
      </trkpt>
      <trkpt lat="44.03309" lon="5.99443">
        <ele>549.53</ele>
        <time>2018-10-24T13:42:00Z</time>
      </trkpt>
      <trkpt lat="44.03314" lon="5.99451">
        <ele>547.61</ele>
        <time>2018-10-24T13:42:11Z</time>
      </trkpt>
      <trkpt lat="44.03319" lon="5.99461">
        <ele>545.69</ele>
        <time>2018-10-24T13:42:23Z</time>
      </trkpt>
      <trkpt lat="44.03325" lon="5.99467">
        <ele>542.8</ele>
        <time>2018-10-24T13:42:36Z</time>
      </trkpt>
      <trkpt lat="44.03333" lon="5.99471">
        <ele>539.44</ele>
        <time>2018-10-24T13:42:47Z</time>
      </trkpt>
      <trkpt lat="44.03337" lon="5.99472">
        <ele>536.55</ele>
        <time>2018-10-24T13:42:59Z</time>
      </trkpt>
      <trkpt lat="44.03338" lon="5.99472">
        <ele>535.11</ele>
        <time>2018-10-24T13:43:02Z</time>
      </trkpt>
      <trkpt lat="44.03346" lon="5.99466">
        <ele>534.63</ele>
        <time>2018-10-24T13:43:14Z</time>
      </trkpt>
      <trkpt lat="44.03345" lon="5.99469">
        <ele>533.67</ele>
        <time>2018-10-24T13:43:18Z</time>
      </trkpt>
      <trkpt lat="44.03345" lon="5.9947">
        <ele>533.67</ele>
        <time>2018-10-24T13:43:20Z</time>
      </trkpt>
      <trkpt lat="44.03348" lon="5.99476">
        <ele>531.27</ele>
        <time>2018-10-24T13:43:31Z</time>
      </trkpt>
      <trkpt lat="44.0335" lon="5.99483">
        <ele>528.38</ele>
        <time>2018-10-24T13:43:43Z</time>
      </trkpt>
      <trkpt lat="44.03354" lon="5.99481">
        <ele>527.42</ele>
        <time>2018-10-24T13:43:54Z</time>
      </trkpt>
      <trkpt lat="44.03358" lon="5.99478">
        <ele>523.58</ele>
        <time>2018-10-24T13:44:02Z</time>
      </trkpt>
      <trkpt lat="44.03358" lon="5.99478">
        <ele>524.54</ele>
        <time>2018-10-24T13:44:03Z</time>
      </trkpt>
      <trkpt lat="44.03353" lon="5.99481">
        <ele>524.06</ele>
        <time>2018-10-24T13:44:12Z</time>
      </trkpt>
      <trkpt lat="44.03355" lon="5.99486">
        <ele>521.17</ele>
        <time>2018-10-24T13:44:22Z</time>
      </trkpt>
      <trkpt lat="44.03356" lon="5.99486">
        <ele>520.21</ele>
        <time>2018-10-24T13:44:24Z</time>
      </trkpt>
      <trkpt lat="44.03358" lon="5.99485">
        <ele>518.29</ele>
        <time>2018-10-24T13:44:28Z</time>
      </trkpt>
      <trkpt lat="44.03361" lon="5.99481">
        <ele>518.29</ele>
        <time>2018-10-24T13:44:40Z</time>
      </trkpt>
      <trkpt lat="44.03363" lon="5.99473">
        <ele>516.37</ele>
        <time>2018-10-24T13:44:50Z</time>
      </trkpt>
      <trkpt lat="44.03366" lon="5.99475">
        <ele>514.44</ele>
        <time>2018-10-24T13:44:56Z</time>
      </trkpt>
      <trkpt lat="44.03376" lon="5.99474">
        <ele>512.04</ele>
        <time>2018-10-24T13:45:09Z</time>
      </trkpt>
      <trkpt lat="44.03376" lon="5.99476">
        <ele>511.56</ele>
        <time>2018-10-24T13:45:13Z</time>
      </trkpt>
      <trkpt lat="44.03379" lon="5.99479">
        <ele>508.67</ele>
        <time>2018-10-24T13:45:26Z</time>
      </trkpt>
      <trkpt lat="44.03382" lon="5.99481">
        <ele>506.75</ele>
        <time>2018-10-24T13:45:36Z</time>
      </trkpt>
      <trkpt lat="44.03385" lon="5.9949">
        <ele>504.35</ele>
        <time>2018-10-24T13:45:49Z</time>
      </trkpt>
      <trkpt lat="44.03386" lon="5.99495">
        <ele>502.91</ele>
        <time>2018-10-24T13:46:03Z</time>
      </trkpt>
      <trkpt lat="44.03387" lon="5.99495">
        <ele>502.43</ele>
        <time>2018-10-24T13:46:06Z</time>
      </trkpt>
      <trkpt lat="44.03389" lon="5.99494">
        <ele>500.02</ele>
        <time>2018-10-24T13:46:15Z</time>
      </trkpt>
      <trkpt lat="44.03396" lon="5.99485">
        <ele>499.06</ele>
        <time>2018-10-24T13:46:28Z</time>
      </trkpt>
      <trkpt lat="44.03395" lon="5.99487">
        <ele>497.14</ele>
        <time>2018-10-24T13:46:33Z</time>
      </trkpt>
      <trkpt lat="44.03397" lon="5.99486">
        <ele>495.22</ele>
        <time>2018-10-24T13:46:44Z</time>
      </trkpt>
      <trkpt lat="44.034" lon="5.99485">
        <ele>494.74</ele>
        <time>2018-10-24T13:46:48Z</time>
      </trkpt>
      <trkpt lat="44.03401" lon="5.99485">
        <ele>493.29</ele>
        <time>2018-10-24T13:46:51Z</time>
      </trkpt>
      <trkpt lat="44.034" lon="5.99486">
        <ele>492.81</ele>
        <time>2018-10-24T13:46:54Z</time>
      </trkpt>
      <trkpt lat="44.03398" lon="5.99487">
        <ele>491.85</ele>
        <time>2018-10-24T13:46:57Z</time>
      </trkpt>
      <trkpt lat="44.03398" lon="5.99492">
        <ele>489.93</ele>
        <time>2018-10-24T13:47:02Z</time>
      </trkpt>
      <trkpt lat="44.034" lon="5.99499">
        <ele>489.45</ele>
        <time>2018-10-24T13:47:08Z</time>
      </trkpt>
      <trkpt lat="44.034" lon="5.99499">
        <ele>487.05</ele>
        <time>2018-10-24T13:47:20Z</time>
      </trkpt>
      <trkpt lat="44.03406" lon="5.99493">
        <ele>483.68</ele>
        <time>2018-10-24T13:47:34Z</time>
      </trkpt>
      <trkpt lat="44.03406" lon="5.99493">
        <ele>483.68</ele>
        <time>2018-10-24T13:47:36Z</time>
      </trkpt>
      <trkpt lat="44.03411" lon="5.99481">
        <ele>480.8</ele>
        <time>2018-10-24T13:47:46Z</time>
      </trkpt>
      <trkpt lat="44.03412" lon="5.99479">
        <ele>479.84</ele>
        <time>2018-10-24T13:47:48Z</time>
      </trkpt>
      <trkpt lat="44.03416" lon="5.99478">
        <ele>478.87</ele>
        <time>2018-10-24T13:47:55Z</time>
      </trkpt>
      <trkpt lat="44.03419" lon="5.99489">
        <ele>475.99</ele>
        <time>2018-10-24T13:48:06Z</time>
      </trkpt>
      <trkpt lat="44.03419" lon="5.99489">
        <ele>474.55</ele>
        <time>2018-10-24T13:48:09Z</time>
      </trkpt>
      <trkpt lat="44.03425" lon="5.99498">
        <ele>472.63</ele>
        <time>2018-10-24T13:48:21Z</time>
      </trkpt>
      <trkpt lat="44.03426" lon="5.995">
        <ele>471.66</ele>
        <time>2018-10-24T13:48:24Z</time>
      </trkpt>
      <trkpt lat="44.03429" lon="5.99499">
        <ele>469.74</ele>
        <time>2018-10-24T13:48:38Z</time>
      </trkpt>
      <trkpt lat="44.03433" lon="5.99504">
        <ele>468.78</ele>
        <time>2018-10-24T13:48:49Z</time>
      </trkpt>
      <trkpt lat="44.03436" lon="5.99508">
        <ele>466.86</ele>
        <time>2018-10-24T13:48:58Z</time>
      </trkpt>
      <trkpt lat="44.0344" lon="5.99508">
        <ele>465.42</ele>
        <time>2018-10-24T13:49:02Z</time>
      </trkpt>
      <trkpt lat="44.03444" lon="5.99506">
        <ele>461.57</ele>
        <time>2018-10-24T13:49:13Z</time>
      </trkpt>
      <trkpt lat="44.03445" lon="5.99505">
        <ele>462.05</ele>
        <time>2018-10-24T13:49:14Z</time>
      </trkpt>
      <trkpt lat="44.03447" lon="5.99505">
        <ele>461.09</ele>
        <time>2018-10-24T13:49:26Z</time>
      </trkpt>
      <trkpt lat="44.03449" lon="5.99506">
        <ele>460.13</ele>
        <time>2018-10-24T13:49:40Z</time>
      </trkpt>
      <trkpt lat="44.03446" lon="5.9951">
        <ele>461.09</ele>
        <time>2018-10-24T13:50:01Z</time>
      </trkpt>
      <trkpt lat="44.03447" lon="5.9951">
        <ele>461.09</ele>
        <time>2018-10-24T13:50:39Z</time>
      </trkpt>
      <trkpt lat="44.03447" lon="5.9951">
        <ele>461.57</ele>
        <time>2018-10-24T13:51:13Z</time>
      </trkpt>
      <trkpt lat="44.03448" lon="5.99508">
        <ele>461.09</ele>
        <time>2018-10-24T13:52:02Z</time>
      </trkpt>
      <trkpt lat="44.03448" lon="5.99505">
        <ele>461.09</ele>
        <time>2018-10-24T13:52:16Z</time>
      </trkpt>
      <trkpt lat="44.03448" lon="5.99505">
        <ele>461.09</ele>
        <time>2018-10-24T13:52:42Z</time>
      </trkpt>
      <trkpt lat="44.03448" lon="5.99504">
        <ele>462.05</ele>
        <time>2018-10-24T13:54:12Z</time>
      </trkpt>
      <trkpt lat="44.03449" lon="5.99504">
        <ele>462.05</ele>
        <time>2018-10-24T13:55:17Z</time>
      </trkpt>
      <trkpt lat="44.03449" lon="5.99504">
        <ele>461.09</ele>
        <time>2018-10-24T13:56:05Z</time>
      </trkpt>
      <trkpt lat="44.03451" lon="5.99504">
        <ele>460.13</ele>
        <time>2018-10-24T13:56:23Z</time>
      </trkpt>
      <trkpt lat="44.03451" lon="5.99504">
        <ele>461.09</ele>
        <time>2018-10-24T13:56:45Z</time>
      </trkpt>
      <trkpt lat="44.03451" lon="5.99504">
        <ele>462.53</ele>
        <time>2018-10-24T13:57:29Z</time>
      </trkpt>
      <trkpt lat="44.0345" lon="5.99503">
        <ele>462.05</ele>
        <time>2018-10-24T13:57:52Z</time>
      </trkpt>
      <trkpt lat="44.03448" lon="5.99502">
        <ele>462.05</ele>
        <time>2018-10-24T13:58:15Z</time>
      </trkpt>
      <trkpt lat="44.03448" lon="5.99503">
        <ele>462.53</ele>
        <time>2018-10-24T13:59:07Z</time>
      </trkpt>
      <trkpt lat="44.03446" lon="5.99504">
        <ele>462.53</ele>
        <time>2018-10-24T13:59:26Z</time>
      </trkpt>
      <trkpt lat="44.03448" lon="5.99501">
        <ele>462.53</ele>
        <time>2018-10-24T13:59:49Z</time>
      </trkpt>
      <trkpt lat="44.03451" lon="5.99497">
        <ele>462.53</ele>
        <time>2018-10-24T13:59:53Z</time>
      </trkpt>
      <trkpt lat="44.03453" lon="5.99482">
        <ele>461.57</ele>
        <time>2018-10-24T14:00:05Z</time>
      </trkpt>
      <trkpt lat="44.03453" lon="5.99464">
        <ele>459.65</ele>
        <time>2018-10-24T14:00:17Z</time>
      </trkpt>
      <trkpt lat="44.03456" lon="5.99449">
        <ele>458.21</ele>
        <time>2018-10-24T14:00:32Z</time>
      </trkpt>
      <trkpt lat="44.03458" lon="5.99436">
        <ele>456.28</ele>
        <time>2018-10-24T14:00:46Z</time>
      </trkpt>
      <trkpt lat="44.03458" lon="5.99419">
        <ele>455.32</ele>
        <time>2018-10-24T14:00:59Z</time>
      </trkpt>
      <trkpt lat="44.03458" lon="5.99418">
        <ele>454.84</ele>
        <time>2018-10-24T14:01:00Z</time>
      </trkpt>
      <trkpt lat="44.0346" lon="5.99406">
        <ele>452.92</ele>
        <time>2018-10-24T14:01:12Z</time>
      </trkpt>
      <trkpt lat="44.03459" lon="5.99394">
        <ele>451.48</ele>
        <time>2018-10-24T14:01:22Z</time>
      </trkpt>
      <trkpt lat="44.03454" lon="5.99384">
        <ele>451</ele>
        <time>2018-10-24T14:01:33Z</time>
      </trkpt>
      <trkpt lat="44.03449" lon="5.99378">
        <ele>451.96</ele>
        <time>2018-10-24T14:01:39Z</time>
      </trkpt>
      <trkpt lat="44.03447" lon="5.99364">
        <ele>452.92</ele>
        <time>2018-10-24T14:01:51Z</time>
      </trkpt>
      <trkpt lat="44.03446" lon="5.9936">
        <ele>452.92</ele>
        <time>2018-10-24T14:01:54Z</time>
      </trkpt>
      <trkpt lat="44.03442" lon="5.99347">
        <ele>454.36</ele>
        <time>2018-10-24T14:02:07Z</time>
      </trkpt>
      <trkpt lat="44.03434" lon="5.99328">
        <ele>454.84</ele>
        <time>2018-10-24T14:02:21Z</time>
      </trkpt>
      <trkpt lat="44.0343" lon="5.99318">
        <ele>455.32</ele>
        <time>2018-10-24T14:02:29Z</time>
      </trkpt>
      <trkpt lat="44.03421" lon="5.99304">
        <ele>454.84</ele>
        <time>2018-10-24T14:02:42Z</time>
      </trkpt>
      <trkpt lat="44.03416" lon="5.99293">
        <ele>454.84</ele>
        <time>2018-10-24T14:02:51Z</time>
      </trkpt>
      <trkpt lat="44.03416" lon="5.99279">
        <ele>454.84</ele>
        <time>2018-10-24T14:03:03Z</time>
      </trkpt>
      <trkpt lat="44.03415" lon="5.99272">
        <ele>454.36</ele>
        <time>2018-10-24T14:03:09Z</time>
      </trkpt>
      <trkpt lat="44.03414" lon="5.99256">
        <ele>451.96</ele>
        <time>2018-10-24T14:03:22Z</time>
      </trkpt>
      <trkpt lat="44.03414" lon="5.99255">
        <ele>451.96</ele>
        <time>2018-10-24T14:03:23Z</time>
      </trkpt>
      <trkpt lat="44.03413" lon="5.99247">
        <ele>450.52</ele>
        <time>2018-10-24T14:03:36Z</time>
      </trkpt>
      <trkpt lat="44.03411" lon="5.99244">
        <ele>450.03</ele>
        <time>2018-10-24T14:03:39Z</time>
      </trkpt>
      <trkpt lat="44.03411" lon="5.9924">
        <ele>449.55</ele>
        <time>2018-10-24T14:03:42Z</time>
      </trkpt>
      <trkpt lat="44.03408" lon="5.99225">
        <ele>449.07</ele>
        <time>2018-10-24T14:03:52Z</time>
      </trkpt>
      <trkpt lat="44.03405" lon="5.9921">
        <ele>448.59</ele>
        <time>2018-10-24T14:04:03Z</time>
      </trkpt>
      <trkpt lat="44.03405" lon="5.99202">
        <ele>448.11</ele>
        <time>2018-10-24T14:04:09Z</time>
      </trkpt>
      <trkpt lat="44.03405" lon="5.9919">
        <ele>450.52</ele>
        <time>2018-10-24T14:04:21Z</time>
      </trkpt>
      <trkpt lat="44.03405" lon="5.99189">
        <ele>450.52</ele>
        <time>2018-10-24T14:04:22Z</time>
      </trkpt>
      <trkpt lat="44.03406" lon="5.9917">
        <ele>449.55</ele>
        <time>2018-10-24T14:04:35Z</time>
      </trkpt>
      <trkpt lat="44.03401" lon="5.99154">
        <ele>449.55</ele>
        <time>2018-10-24T14:04:48Z</time>
      </trkpt>
      <trkpt lat="44.034" lon="5.99151">
        <ele>450.03</ele>
        <time>2018-10-24T14:04:50Z</time>
      </trkpt>
      <trkpt lat="44.03398" lon="5.99145">
        <ele>450.52</ele>
        <time>2018-10-24T14:04:55Z</time>
      </trkpt>
      <trkpt lat="44.03392" lon="5.99136">
        <ele>451</ele>
        <time>2018-10-24T14:05:04Z</time>
      </trkpt>
      <trkpt lat="44.03384" lon="5.99127">
        <ele>450.52</ele>
        <time>2018-10-24T14:05:13Z</time>
      </trkpt>
      <trkpt lat="44.03379" lon="5.99118">
        <ele>450.03</ele>
        <time>2018-10-24T14:05:25Z</time>
      </trkpt>
      <trkpt lat="44.03378" lon="5.99115">
        <ele>449.55</ele>
        <time>2018-10-24T14:05:28Z</time>
      </trkpt>
      <trkpt lat="44.03375" lon="5.99107">
        <ele>448.59</ele>
        <time>2018-10-24T14:05:35Z</time>
      </trkpt>
      <trkpt lat="44.03371" lon="5.99095">
        <ele>450.52</ele>
        <time>2018-10-24T14:05:46Z</time>
      </trkpt>
      <trkpt lat="44.03366" lon="5.99085">
        <ele>451.48</ele>
        <time>2018-10-24T14:05:58Z</time>
      </trkpt>
      <trkpt lat="44.03361" lon="5.99074">
        <ele>453.4</ele>
        <time>2018-10-24T14:06:08Z</time>
      </trkpt>
      <trkpt lat="44.03357" lon="5.99063">
        <ele>453.4</ele>
        <time>2018-10-24T14:06:21Z</time>
      </trkpt>
      <trkpt lat="44.03353" lon="5.99054">
        <ele>453.88</ele>
        <time>2018-10-24T14:06:27Z</time>
      </trkpt>
      <trkpt lat="44.03345" lon="5.99039">
        <ele>453.88</ele>
        <time>2018-10-24T14:06:40Z</time>
      </trkpt>
      <trkpt lat="44.03344" lon="5.99038">
        <ele>453.4</ele>
        <time>2018-10-24T14:06:41Z</time>
      </trkpt>
      <trkpt lat="44.03337" lon="5.99022">
        <ele>453.4</ele>
        <time>2018-10-24T14:06:53Z</time>
      </trkpt>
      <trkpt lat="44.03334" lon="5.99006">
        <ele>454.84</ele>
        <time>2018-10-24T14:07:05Z</time>
      </trkpt>
      <trkpt lat="44.03332" lon="5.98998">
        <ele>454.84</ele>
        <time>2018-10-24T14:07:11Z</time>
      </trkpt>
      <trkpt lat="44.03329" lon="5.98995">
        <ele>454.84</ele>
        <time>2018-10-24T14:07:14Z</time>
      </trkpt>
      <trkpt lat="44.03323" lon="5.9899">
        <ele>453.88</ele>
        <time>2018-10-24T14:07:22Z</time>
      </trkpt>
      <trkpt lat="44.0332" lon="5.98985">
        <ele>453.88</ele>
        <time>2018-10-24T14:07:26Z</time>
      </trkpt>
      <trkpt lat="44.03319" lon="5.98978">
        <ele>453.4</ele>
        <time>2018-10-24T14:07:30Z</time>
      </trkpt>
      <trkpt lat="44.03309" lon="5.98966">
        <ele>454.84</ele>
        <time>2018-10-24T14:07:41Z</time>
      </trkpt>
      <trkpt lat="44.03304" lon="5.98954">
        <ele>454.84</ele>
        <time>2018-10-24T14:07:52Z</time>
      </trkpt>
      <trkpt lat="44.033" lon="5.98939">
        <ele>453.88</ele>
        <time>2018-10-24T14:08:05Z</time>
      </trkpt>
      <trkpt lat="44.03297" lon="5.9893">
        <ele>454.36</ele>
        <time>2018-10-24T14:08:12Z</time>
      </trkpt>
      <trkpt lat="44.03292" lon="5.98915">
        <ele>452.44</ele>
        <time>2018-10-24T14:08:23Z</time>
      </trkpt>
      <trkpt lat="44.03293" lon="5.98909">
        <ele>453.4</ele>
        <time>2018-10-24T14:08:27Z</time>
      </trkpt>
      <trkpt lat="44.03293" lon="5.98903">
        <ele>452.92</ele>
        <time>2018-10-24T14:08:32Z</time>
      </trkpt>
      <trkpt lat="44.03292" lon="5.98887">
        <ele>454.36</ele>
        <time>2018-10-24T14:08:42Z</time>
      </trkpt>
      <trkpt lat="44.03287" lon="5.98873">
        <ele>454.36</ele>
        <time>2018-10-24T14:08:55Z</time>
      </trkpt>
      <trkpt lat="44.0328" lon="5.98859">
        <ele>452.92</ele>
        <time>2018-10-24T14:09:08Z</time>
      </trkpt>
      <trkpt lat="44.03278" lon="5.98857">
        <ele>452.92</ele>
        <time>2018-10-24T14:09:10Z</time>
      </trkpt>
      <trkpt lat="44.03274" lon="5.98848">
        <ele>453.4</ele>
        <time>2018-10-24T14:09:18Z</time>
      </trkpt>
      <trkpt lat="44.03267" lon="5.98836">
        <ele>453.88</ele>
        <time>2018-10-24T14:09:31Z</time>
      </trkpt>
      <trkpt lat="44.0326" lon="5.9883">
        <ele>452.92</ele>
        <time>2018-10-24T14:09:48Z</time>
      </trkpt>
      <trkpt lat="44.03257" lon="5.98826">
        <ele>452.44</ele>
        <time>2018-10-24T14:09:52Z</time>
      </trkpt>
      <trkpt lat="44.03253" lon="5.98821">
        <ele>451.96</ele>
        <time>2018-10-24T14:09:58Z</time>
      </trkpt>
      <trkpt lat="44.03242" lon="5.98808">
        <ele>450.03</ele>
        <time>2018-10-24T14:10:13Z</time>
      </trkpt>
      <trkpt lat="44.03242" lon="5.98808">
        <ele>453.4</ele>
        <time>2018-10-24T14:10:22Z</time>
      </trkpt>
      <trkpt lat="44.03242" lon="5.9881">
        <ele>453.4</ele>
        <time>2018-10-24T14:10:32Z</time>
      </trkpt>
      <trkpt lat="44.03247" lon="5.98817">
        <ele>455.8</ele>
        <time>2018-10-24T14:10:48Z</time>
      </trkpt>
      <trkpt lat="44.03242" lon="5.98813">
        <ele>455.32</ele>
        <time>2018-10-24T14:11:09Z</time>
      </trkpt>
      <trkpt lat="44.03245" lon="5.98817">
        <ele>453.88</ele>
        <time>2018-10-24T14:11:17Z</time>
      </trkpt>
      <trkpt lat="44.03247" lon="5.98819">
        <ele>453.88</ele>
        <time>2018-10-24T14:11:36Z</time>
      </trkpt>
      <trkpt lat="44.03238" lon="5.98797">
        <ele>454.36</ele>
        <time>2018-10-24T14:12:08Z</time>
      </trkpt>
      <trkpt lat="44.03238" lon="5.98797">
        <ele>450.52</ele>
        <time>2018-10-24T14:12:28Z</time>
      </trkpt>
      <trkpt lat="44.03249" lon="5.98775">
        <ele>452.44</ele>
        <time>2018-10-24T14:12:52Z</time>
      </trkpt>
      <trkpt lat="44.03255" lon="5.98801">
        <ele>453.88</ele>
        <time>2018-10-24T14:13:10Z</time>
      </trkpt>
      <trkpt lat="44.03259" lon="5.98796">
        <ele>451.48</ele>
        <time>2018-10-24T14:13:32Z</time>
      </trkpt>
      <trkpt lat="44.03256" lon="5.98798">
        <ele>451</ele>
        <time>2018-10-24T14:13:44Z</time>
      </trkpt>
      <trkpt lat="44.03254" lon="5.98792">
        <ele>453.4</ele>
        <time>2018-10-24T14:13:51Z</time>
      </trkpt>
      <trkpt lat="44.03252" lon="5.98781">
        <ele>453.4</ele>
        <time>2018-10-24T14:13:59Z</time>
      </trkpt>
      <trkpt lat="44.03253" lon="5.98769">
        <ele>454.84</ele>
        <time>2018-10-24T14:14:10Z</time>
      </trkpt>
      <trkpt lat="44.03248" lon="5.98766">
        <ele>455.32</ele>
        <time>2018-10-24T14:14:22Z</time>
      </trkpt>
      <trkpt lat="44.03245" lon="5.98761">
        <ele>456.76</ele>
        <time>2018-10-24T14:14:36Z</time>
      </trkpt>
      <trkpt lat="44.03242" lon="5.98756">
        <ele>456.76</ele>
        <time>2018-10-24T14:14:51Z</time>
      </trkpt>
      <trkpt lat="44.0324" lon="5.98751">
        <ele>457.72</ele>
        <time>2018-10-24T14:14:56Z</time>
      </trkpt>
      <trkpt lat="44.03238" lon="5.98748">
        <ele>457.72</ele>
        <time>2018-10-24T14:15:03Z</time>
      </trkpt>
      <trkpt lat="44.03236" lon="5.98745">
        <ele>460.13</ele>
        <time>2018-10-24T14:15:07Z</time>
      </trkpt>
      <trkpt lat="44.03233" lon="5.98741">
        <ele>460.61</ele>
        <time>2018-10-24T14:15:11Z</time>
      </trkpt>
      <trkpt lat="44.03226" lon="5.98731">
        <ele>460.61</ele>
        <time>2018-10-24T14:15:23Z</time>
      </trkpt>
      <trkpt lat="44.03221" lon="5.98728">
        <ele>460.13</ele>
        <time>2018-10-24T14:15:37Z</time>
      </trkpt>
      <trkpt lat="44.03214" lon="5.9872">
        <ele>459.65</ele>
        <time>2018-10-24T14:15:46Z</time>
      </trkpt>
      <trkpt lat="44.03214" lon="5.98718">
        <ele>460.13</ele>
        <time>2018-10-24T14:15:47Z</time>
      </trkpt>
      <trkpt lat="44.03207" lon="5.98707">
        <ele>460.61</ele>
        <time>2018-10-24T14:16:00Z</time>
      </trkpt>
      <trkpt lat="44.03204" lon="5.98697">
        <ele>459.17</ele>
        <time>2018-10-24T14:16:10Z</time>
      </trkpt>
      <trkpt lat="44.03202" lon="5.98683">
        <ele>458.21</ele>
        <time>2018-10-24T14:16:21Z</time>
      </trkpt>
      <trkpt lat="44.03201" lon="5.98676">
        <ele>457.72</ele>
        <time>2018-10-24T14:16:28Z</time>
      </trkpt>
      <trkpt lat="44.03196" lon="5.98663">
        <ele>456.28</ele>
        <time>2018-10-24T14:16:40Z</time>
      </trkpt>
      <trkpt lat="44.03196" lon="5.9865">
        <ele>454.84</ele>
        <time>2018-10-24T14:16:52Z</time>
      </trkpt>
      <trkpt lat="44.03196" lon="5.98644">
        <ele>454.84</ele>
        <time>2018-10-24T14:16:55Z</time>
      </trkpt>
      <trkpt lat="44.0319" lon="5.98633">
        <ele>454.36</ele>
        <time>2018-10-24T14:17:07Z</time>
      </trkpt>
      <trkpt lat="44.03189" lon="5.98626">
        <ele>453.88</ele>
        <time>2018-10-24T14:17:13Z</time>
      </trkpt>
      <trkpt lat="44.03191" lon="5.9861">
        <ele>451.96</ele>
        <time>2018-10-24T14:17:25Z</time>
      </trkpt>
      <trkpt lat="44.03188" lon="5.98606">
        <ele>451.96</ele>
        <time>2018-10-24T14:17:41Z</time>
      </trkpt>
      <trkpt lat="44.03186" lon="5.98588">
        <ele>451.48</ele>
        <time>2018-10-24T14:17:54Z</time>
      </trkpt>
      <trkpt lat="44.03183" lon="5.98577">
        <ele>451.96</ele>
        <time>2018-10-24T14:18:04Z</time>
      </trkpt>
      <trkpt lat="44.03178" lon="5.98564">
        <ele>451.48</ele>
        <time>2018-10-24T14:18:17Z</time>
      </trkpt>
      <trkpt lat="44.0317" lon="5.98553">
        <ele>451</ele>
        <time>2018-10-24T14:18:29Z</time>
      </trkpt>
      <trkpt lat="44.03162" lon="5.98539">
        <ele>449.55</ele>
        <time>2018-10-24T14:18:42Z</time>
      </trkpt>
      <trkpt lat="44.03158" lon="5.98523">
        <ele>449.07</ele>
        <time>2018-10-24T14:18:53Z</time>
      </trkpt>
      <trkpt lat="44.03154" lon="5.9851">
        <ele>449.07</ele>
        <time>2018-10-24T14:19:05Z</time>
      </trkpt>
      <trkpt lat="44.03155" lon="5.98504">
        <ele>448.59</ele>
        <time>2018-10-24T14:19:09Z</time>
      </trkpt>
      <trkpt lat="44.03154" lon="5.98489">
        <ele>447.63</ele>
        <time>2018-10-24T14:19:22Z</time>
      </trkpt>
      <trkpt lat="44.03154" lon="5.98484">
        <ele>447.15</ele>
        <time>2018-10-24T14:19:25Z</time>
      </trkpt>
      <trkpt lat="44.03151" lon="5.98468">
        <ele>447.15</ele>
        <time>2018-10-24T14:19:36Z</time>
      </trkpt>
      <trkpt lat="44.0315" lon="5.98461">
        <ele>446.67</ele>
        <time>2018-10-24T14:19:41Z</time>
      </trkpt>
      <trkpt lat="44.03149" lon="5.98441">
        <ele>446.19</ele>
        <time>2018-10-24T14:19:56Z</time>
      </trkpt>
      <trkpt lat="44.03149" lon="5.98435">
        <ele>446.67</ele>
        <time>2018-10-24T14:20:00Z</time>
      </trkpt>
      <trkpt lat="44.03148" lon="5.98428">
        <ele>446.67</ele>
        <time>2018-10-24T14:20:05Z</time>
      </trkpt>
      <trkpt lat="44.03141" lon="5.98415">
        <ele>445.23</ele>
        <time>2018-10-24T14:20:18Z</time>
      </trkpt>
      <trkpt lat="44.03138" lon="5.98408">
        <ele>446.19</ele>
        <time>2018-10-24T14:20:25Z</time>
      </trkpt>
      <trkpt lat="44.03138" lon="5.98393">
        <ele>445.23</ele>
        <time>2018-10-24T14:20:39Z</time>
      </trkpt>
      <trkpt lat="44.03132" lon="5.98376">
        <ele>444.75</ele>
        <time>2018-10-24T14:20:50Z</time>
      </trkpt>
      <trkpt lat="44.0313" lon="5.98359">
        <ele>443.79</ele>
        <time>2018-10-24T14:21:04Z</time>
      </trkpt>
      <trkpt lat="44.03125" lon="5.98347">
        <ele>442.34</ele>
        <time>2018-10-24T14:21:17Z</time>
      </trkpt>
      <trkpt lat="44.03122" lon="5.98335">
        <ele>441.38</ele>
        <time>2018-10-24T14:21:28Z</time>
      </trkpt>
      <trkpt lat="44.03118" lon="5.98322">
        <ele>439.46</ele>
        <time>2018-10-24T14:21:42Z</time>
      </trkpt>
      <trkpt lat="44.03116" lon="5.98318">
        <ele>437.54</ele>
        <time>2018-10-24T14:21:49Z</time>
      </trkpt>
      <trkpt lat="44.03115" lon="5.98305">
        <ele>435.61</ele>
        <time>2018-10-24T14:22:00Z</time>
      </trkpt>
      <trkpt lat="44.03112" lon="5.98289">
        <ele>433.69</ele>
        <time>2018-10-24T14:22:12Z</time>
      </trkpt>
      <trkpt lat="44.0311" lon="5.98281">
        <ele>432.25</ele>
        <time>2018-10-24T14:22:21Z</time>
      </trkpt>
      <trkpt lat="44.03108" lon="5.9827">
        <ele>431.29</ele>
        <time>2018-10-24T14:22:33Z</time>
      </trkpt>
      <trkpt lat="44.03102" lon="5.98253">
        <ele>429.85</ele>
        <time>2018-10-24T14:22:46Z</time>
      </trkpt>
      <trkpt lat="44.03097" lon="5.98238">
        <ele>429.85</ele>
        <time>2018-10-24T14:22:59Z</time>
      </trkpt>
      <trkpt lat="44.03093" lon="5.98221">
        <ele>428.4</ele>
        <time>2018-10-24T14:23:13Z</time>
      </trkpt>
      <trkpt lat="44.03088" lon="5.98209">
        <ele>427.92</ele>
        <time>2018-10-24T14:23:25Z</time>
      </trkpt>
      <trkpt lat="44.03081" lon="5.98189">
        <ele>427.44</ele>
        <time>2018-10-24T14:23:40Z</time>
      </trkpt>
      <trkpt lat="44.03078" lon="5.98176">
        <ele>427.92</ele>
        <time>2018-10-24T14:23:50Z</time>
      </trkpt>
      <trkpt lat="44.0307" lon="5.98163">
        <ele>426.96</ele>
        <time>2018-10-24T14:24:03Z</time>
      </trkpt>
      <trkpt lat="44.03066" lon="5.98152">
        <ele>426.48</ele>
        <time>2018-10-24T14:24:19Z</time>
      </trkpt>
      <trkpt lat="44.03059" lon="5.98139">
        <ele>424.08</ele>
        <time>2018-10-24T14:24:31Z</time>
      </trkpt>
      <trkpt lat="44.03056" lon="5.98129">
        <ele>423.12</ele>
        <time>2018-10-24T14:24:42Z</time>
      </trkpt>
      <trkpt lat="44.03052" lon="5.9811">
        <ele>423.12</ele>
        <time>2018-10-24T14:24:56Z</time>
      </trkpt>
      <trkpt lat="44.03051" lon="5.98096">
        <ele>423.12</ele>
        <time>2018-10-24T14:25:07Z</time>
      </trkpt>
      <trkpt lat="44.03044" lon="5.98086">
        <ele>422.64</ele>
        <time>2018-10-24T14:25:22Z</time>
      </trkpt>
      <trkpt lat="44.03036" lon="5.98077">
        <ele>423.12</ele>
        <time>2018-10-24T14:25:37Z</time>
      </trkpt>
      <trkpt lat="44.03034" lon="5.98074">
        <ele>423.12</ele>
        <time>2018-10-24T14:25:58Z</time>
      </trkpt>
      <trkpt lat="44.03024" lon="5.98071">
        <ele>423.12</ele>
        <time>2018-10-24T14:26:09Z</time>
      </trkpt>
      <trkpt lat="44.0302" lon="5.98065">
        <ele>423.6</ele>
        <time>2018-10-24T14:26:19Z</time>
      </trkpt>
      <trkpt lat="44.03011" lon="5.98063">
        <ele>423.6</ele>
        <time>2018-10-24T14:26:35Z</time>
      </trkpt>
      <trkpt lat="44.0301" lon="5.98052">
        <ele>423.6</ele>
        <time>2018-10-24T14:26:49Z</time>
      </trkpt>
      <trkpt lat="44.0301" lon="5.98051">
        <ele>424.08</ele>
        <time>2018-10-24T14:26:53Z</time>
      </trkpt>
      <trkpt lat="44.03011" lon="5.98042">
        <ele>424.08</ele>
        <time>2018-10-24T14:26:59Z</time>
      </trkpt>
      <trkpt lat="44.03013" lon="5.98023">
        <ele>425.52</ele>
        <time>2018-10-24T14:27:14Z</time>
      </trkpt>
      <trkpt lat="44.03014" lon="5.98013">
        <ele>425.52</ele>
        <time>2018-10-24T14:27:25Z</time>
      </trkpt>
      <trkpt lat="44.03023" lon="5.98002">
        <ele>425.52</ele>
        <time>2018-10-24T14:27:36Z</time>
      </trkpt>
      <trkpt lat="44.03023" lon="5.98002">
        <ele>425.04</ele>
        <time>2018-10-24T14:28:11Z</time>
      </trkpt>
      <trkpt lat="44.0302" lon="5.97999">
        <ele>425.52</ele>
        <time>2018-10-24T14:28:37Z</time>
      </trkpt>
      <trkpt lat="44.0302" lon="5.97996">
        <ele>425.04</ele>
        <time>2018-10-24T14:28:40Z</time>
      </trkpt>
      <trkpt lat="44.03025" lon="5.9798">
        <ele>426.48</ele>
        <time>2018-10-24T14:28:52Z</time>
      </trkpt>
      <trkpt lat="44.03027" lon="5.97972">
        <ele>424.56</ele>
        <time>2018-10-24T14:29:05Z</time>
      </trkpt>
      <trkpt lat="44.03028" lon="5.97964">
        <ele>424.56</ele>
        <time>2018-10-24T14:29:11Z</time>
      </trkpt>
      <trkpt lat="44.03026" lon="5.97946">
        <ele>423.12</ele>
        <time>2018-10-24T14:29:25Z</time>
      </trkpt>
      <trkpt lat="44.03025" lon="5.97928">
        <ele>421.68</ele>
        <time>2018-10-24T14:29:37Z</time>
      </trkpt>
      <trkpt lat="44.03024" lon="5.97921">
        <ele>420.23</ele>
        <time>2018-10-24T14:29:44Z</time>
      </trkpt>
      <trkpt lat="44.03022" lon="5.97911">
        <ele>421.19</ele>
        <time>2018-10-24T14:29:52Z</time>
      </trkpt>
      <trkpt lat="44.03019" lon="5.97902">
        <ele>420.71</ele>
        <time>2018-10-24T14:30:00Z</time>
      </trkpt>
      <trkpt lat="44.03019" lon="5.97886">
        <ele>423.12</ele>
        <time>2018-10-24T14:30:10Z</time>
      </trkpt>
      <trkpt lat="44.03012" lon="5.9787">
        <ele>423.12</ele>
        <time>2018-10-24T14:30:24Z</time>
      </trkpt>
      <trkpt lat="44.03009" lon="5.97867">
        <ele>422.64</ele>
        <time>2018-10-24T14:30:28Z</time>
      </trkpt>
      <trkpt lat="44.02995" lon="5.97856">
        <ele>421.19</ele>
        <time>2018-10-24T14:30:44Z</time>
      </trkpt>
      <trkpt lat="44.02994" lon="5.97855">
        <ele>421.19</ele>
        <time>2018-10-24T14:30:45Z</time>
      </trkpt>
      <trkpt lat="44.02988" lon="5.97839">
        <ele>421.68</ele>
        <time>2018-10-24T14:30:58Z</time>
      </trkpt>
      <trkpt lat="44.0298" lon="5.97823">
        <ele>423.12</ele>
        <time>2018-10-24T14:31:13Z</time>
      </trkpt>
      <trkpt lat="44.02977" lon="5.97812">
        <ele>422.64</ele>
        <time>2018-10-24T14:31:20Z</time>
      </trkpt>
      <trkpt lat="44.0297" lon="5.9779">
        <ele>422.64</ele>
        <time>2018-10-24T14:31:37Z</time>
      </trkpt>
      <trkpt lat="44.02969" lon="5.97786">
        <ele>422.64</ele>
        <time>2018-10-24T14:31:40Z</time>
      </trkpt>
      <trkpt lat="44.02971" lon="5.97768">
        <ele>421.68</ele>
        <time>2018-10-24T14:31:52Z</time>
      </trkpt>
      <trkpt lat="44.02974" lon="5.97756">
        <ele>421.19</ele>
        <time>2018-10-24T14:32:04Z</time>
      </trkpt>
      <trkpt lat="44.02979" lon="5.97746">
        <ele>419.27</ele>
        <time>2018-10-24T14:32:11Z</time>
      </trkpt>
      <trkpt lat="44.02988" lon="5.97733">
        <ele>418.79</ele>
        <time>2018-10-24T14:32:20Z</time>
      </trkpt>
      <trkpt lat="44.02983" lon="5.97717">
        <ele>420.23</ele>
        <time>2018-10-24T14:32:32Z</time>
      </trkpt>
      <trkpt lat="44.02978" lon="5.97708">
        <ele>420.23</ele>
        <time>2018-10-24T14:32:43Z</time>
      </trkpt>
      <trkpt lat="44.02974" lon="5.97699">
        <ele>420.71</ele>
        <time>2018-10-24T14:32:56Z</time>
      </trkpt>
      <trkpt lat="44.02969" lon="5.97682">
        <ele>421.19</ele>
        <time>2018-10-24T14:33:07Z</time>
      </trkpt>
      <trkpt lat="44.02967" lon="5.97679">
        <ele>421.68</ele>
        <time>2018-10-24T14:33:10Z</time>
      </trkpt>
      <trkpt lat="44.02964" lon="5.97673">
        <ele>422.16</ele>
        <time>2018-10-24T14:33:14Z</time>
      </trkpt>
      <trkpt lat="44.02956" lon="5.97656">
        <ele>422.16</ele>
        <time>2018-10-24T14:33:28Z</time>
      </trkpt>
      <trkpt lat="44.02953" lon="5.97646">
        <ele>422.64</ele>
        <time>2018-10-24T14:33:35Z</time>
      </trkpt>
      <trkpt lat="44.02948" lon="5.97631">
        <ele>424.56</ele>
        <time>2018-10-24T14:33:50Z</time>
      </trkpt>
      <trkpt lat="44.02943" lon="5.97621">
        <ele>423.6</ele>
        <time>2018-10-24T14:34:01Z</time>
      </trkpt>
      <trkpt lat="44.02941" lon="5.97618">
        <ele>424.08</ele>
        <time>2018-10-24T14:34:04Z</time>
      </trkpt>
      <trkpt lat="44.02932" lon="5.97608">
        <ele>424.08</ele>
        <time>2018-10-24T14:34:16Z</time>
      </trkpt>
      <trkpt lat="44.02927" lon="5.97604">
        <ele>424.08</ele>
        <time>2018-10-24T14:34:22Z</time>
      </trkpt>
      <trkpt lat="44.02916" lon="5.97592">
        <ele>423.12</ele>
        <time>2018-10-24T14:34:36Z</time>
      </trkpt>
      <trkpt lat="44.02909" lon="5.97592">
        <ele>421.68</ele>
        <time>2018-10-24T14:34:43Z</time>
      </trkpt>
      <trkpt lat="44.02906" lon="5.97591">
        <ele>422.64</ele>
        <time>2018-10-24T14:34:46Z</time>
      </trkpt>
      <trkpt lat="44.02904" lon="5.9759">
        <ele>421.68</ele>
        <time>2018-10-24T14:34:48Z</time>
      </trkpt>
      <trkpt lat="44.02896" lon="5.97583">
        <ele>422.64</ele>
        <time>2018-10-24T14:35:02Z</time>
      </trkpt>
      <trkpt lat="44.02892" lon="5.9758">
        <ele>424.56</ele>
        <time>2018-10-24T14:35:07Z</time>
      </trkpt>
      <trkpt lat="44.02886" lon="5.9758">
        <ele>422.16</ele>
        <time>2018-10-24T14:35:21Z</time>
      </trkpt>
      <trkpt lat="44.02875" lon="5.97581">
        <ele>421.68</ele>
        <time>2018-10-24T14:35:48Z</time>
      </trkpt>
      <trkpt lat="44.02867" lon="5.97581">
        <ele>420.23</ele>
        <time>2018-10-24T14:36:01Z</time>
      </trkpt>
      <trkpt lat="44.02867" lon="5.97581">
        <ele>422.16</ele>
        <time>2018-10-24T14:36:24Z</time>
      </trkpt>
      <trkpt lat="44.02868" lon="5.97582">
        <ele>421.68</ele>
        <time>2018-10-24T14:37:11Z</time>
      </trkpt>
      <trkpt lat="44.02866" lon="5.97581">
        <ele>420.71</ele>
        <time>2018-10-24T14:37:29Z</time>
      </trkpt>
    </trkseg>
  </trk>
</gpx>